<?xml version="1.0" encoding="UTF-8" standalone="no" ?>
<gpx xmlns="http://www.topografix.com/GPX/1/1" xmlns:xsi="http://www.w3.org/2001/XMLSchema-instance" xsi:schemaLocation="http://www.topografix.com/GPX/1/1 http://www.topografix.com/GPX/1/1/gpx.xsd" version="1.1" creator="VisuGPX - https://www.visugpx.com">
  <metadata>
    <name>Simorre 2019 10 23</name>
    <desc><![CDATA[
]]></desc>
  </metadata>
  <trk>
    <name><![CDATA[Simorre 2019 10 23]]></name>
    <trkseg>
      <trkpt lat="43.44925" lon="0.73427">
        <ele>250</ele>
        <time>2019-10-23T10:42:17.000Z</time>
      </trkpt>
      <trkpt lat="43.4491" lon="0.73401">
        <ele>249</ele>
        <time>2019-10-23T10:45:2.000Z</time>
      </trkpt>
      <trkpt lat="43.44888" lon="0.73413">
        <ele>250</ele>
        <time>2019-10-23T10:48:57.000Z</time>
      </trkpt>
      <trkpt lat="43.44868" lon="0.73427">
        <ele>251</ele>
        <time>2019-10-23T10:49:13.000Z</time>
      </trkpt>
      <trkpt lat="43.44848" lon="0.73439">
        <ele>250</ele>
        <time>2019-10-23T10:49:31.000Z</time>
      </trkpt>
      <trkpt lat="43.44825" lon="0.73449">
        <ele>250</ele>
        <time>2019-10-23T10:49:51.000Z</time>
      </trkpt>
      <trkpt lat="43.44804" lon="0.73462">
        <ele>251</ele>
        <time>2019-10-23T10:50:9.000Z</time>
      </trkpt>
      <trkpt lat="43.44781" lon="0.73464">
        <ele>250</ele>
        <time>2019-10-23T10:50:32.000Z</time>
      </trkpt>
      <trkpt lat="43.44758" lon="0.73465">
        <ele>250</ele>
        <time>2019-10-23T10:50:52.000Z</time>
      </trkpt>
      <trkpt lat="43.44735" lon="0.73475">
        <ele>249</ele>
        <time>2019-10-23T10:51:7.000Z</time>
      </trkpt>
      <trkpt lat="43.44712" lon="0.73479">
        <ele>249</ele>
        <time>2019-10-23T10:51:22.000Z</time>
      </trkpt>
      <trkpt lat="43.4469" lon="0.73488">
        <ele>249</ele>
        <time>2019-10-23T10:51:40.000Z</time>
      </trkpt>
      <trkpt lat="43.44667" lon="0.73495">
        <ele>249</ele>
        <time>2019-10-23T10:52:0.000Z</time>
      </trkpt>
      <trkpt lat="43.44644" lon="0.73492">
        <ele>249</ele>
        <time>2019-10-23T10:52:17.000Z</time>
      </trkpt>
      <trkpt lat="43.44621" lon="0.73496">
        <ele>250</ele>
        <time>2019-10-23T10:52:34.000Z</time>
      </trkpt>
      <trkpt lat="43.44598" lon="0.73494">
        <ele>250</ele>
        <time>2019-10-23T10:52:54.000Z</time>
      </trkpt>
      <trkpt lat="43.44577" lon="0.73481">
        <ele>250</ele>
        <time>2019-10-23T10:53:11.000Z</time>
      </trkpt>
      <trkpt lat="43.44556" lon="0.73471">
        <ele>250</ele>
        <time>2019-10-23T10:53:26.000Z</time>
      </trkpt>
      <trkpt lat="43.44533" lon="0.73466">
        <ele>250</ele>
        <time>2019-10-23T10:53:44.000Z</time>
      </trkpt>
      <trkpt lat="43.4451" lon="0.73462">
        <ele>250</ele>
        <time>2019-10-23T10:54:6.000Z</time>
      </trkpt>
      <trkpt lat="43.44488" lon="0.73451">
        <ele>251</ele>
        <time>2019-10-23T10:54:23.000Z</time>
      </trkpt>
      <trkpt lat="43.44468" lon="0.73437">
        <ele>251</ele>
        <time>2019-10-23T10:54:40.000Z</time>
      </trkpt>
      <trkpt lat="43.44446" lon="0.73423">
        <ele>251</ele>
        <time>2019-10-23T10:54:57.000Z</time>
      </trkpt>
      <trkpt lat="43.44424" lon="0.73412">
        <ele>250</ele>
        <time>2019-10-23T10:55:18.000Z</time>
      </trkpt>
      <trkpt lat="43.44403" lon="0.734">
        <ele>250</ele>
        <time>2019-10-23T10:55:36.000Z</time>
      </trkpt>
      <trkpt lat="43.44382" lon="0.73392">
        <ele>252</ele>
        <time>2019-10-23T10:55:52.000Z</time>
      </trkpt>
      <trkpt lat="43.44359" lon="0.73395">
        <ele>251</ele>
        <time>2019-10-23T10:56:12.000Z</time>
      </trkpt>
      <trkpt lat="43.44336" lon="0.73402">
        <ele>251</ele>
        <time>2019-10-23T10:56:25.000Z</time>
      </trkpt>
      <trkpt lat="43.44319" lon="0.73424">
        <ele>251</ele>
        <time>2019-10-23T10:56:47.000Z</time>
      </trkpt>
      <trkpt lat="43.44307" lon="0.73451">
        <ele>252</ele>
        <time>2019-10-23T10:57:59.000Z</time>
      </trkpt>
      <trkpt lat="43.44292" lon="0.73476">
        <ele>253</ele>
        <time>2019-10-23T10:58:13.000Z</time>
      </trkpt>
      <trkpt lat="43.44274" lon="0.73496">
        <ele>253</ele>
        <time>2019-10-23T10:58:33.000Z</time>
      </trkpt>
      <trkpt lat="43.44256" lon="0.73517">
        <ele>253</ele>
        <time>2019-10-23T10:58:52.000Z</time>
      </trkpt>
      <trkpt lat="43.44236" lon="0.73533">
        <ele>254</ele>
        <time>2019-10-23T10:59:8.000Z</time>
      </trkpt>
      <trkpt lat="43.44215" lon="0.73547">
        <ele>253</ele>
        <time>2019-10-23T10:59:27.000Z</time>
      </trkpt>
      <trkpt lat="43.44193" lon="0.73558">
        <ele>253</ele>
        <time>2019-10-23T10:59:45.000Z</time>
      </trkpt>
      <trkpt lat="43.44172" lon="0.73571">
        <ele>254</ele>
        <time>2019-10-23T11:00:3.000Z</time>
      </trkpt>
      <trkpt lat="43.4415" lon="0.73579">
        <ele>254</ele>
        <time>2019-10-23T11:00:20.000Z</time>
      </trkpt>
      <trkpt lat="43.44129" lon="0.73592">
        <ele>255</ele>
        <time>2019-10-23T11:00:40.000Z</time>
      </trkpt>
      <trkpt lat="43.44107" lon="0.73583">
        <ele>256</ele>
        <time>2019-10-23T11:01:8.000Z</time>
      </trkpt>
      <trkpt lat="43.44086" lon="0.73569">
        <ele>257</ele>
        <time>2019-10-23T11:01:26.000Z</time>
      </trkpt>
      <trkpt lat="43.44066" lon="0.73553">
        <ele>259</ele>
        <time>2019-10-23T11:01:41.000Z</time>
      </trkpt>
      <trkpt lat="43.44045" lon="0.73542">
        <ele>261</ele>
        <time>2019-10-23T11:02:6.000Z</time>
      </trkpt>
      <trkpt lat="43.44026" lon="0.73523">
        <ele>264</ele>
        <time>2019-10-23T11:02:28.000Z</time>
      </trkpt>
      <trkpt lat="43.4401" lon="0.73498">
        <ele>268</ele>
        <time>2019-10-23T11:02:51.000Z</time>
      </trkpt>
      <trkpt lat="43.44" lon="0.73471">
        <ele>270</ele>
        <time>2019-10-23T11:03:21.000Z</time>
      </trkpt>
      <trkpt lat="43.43983" lon="0.7345">
        <ele>273</ele>
        <time>2019-10-23T11:03:40.000Z</time>
      </trkpt>
      <trkpt lat="43.43964" lon="0.73432">
        <ele>273</ele>
        <time>2019-10-23T11:04:2.000Z</time>
      </trkpt>
      <trkpt lat="43.43946" lon="0.73412">
        <ele>275</ele>
        <time>2019-10-23T11:04:24.000Z</time>
      </trkpt>
      <trkpt lat="43.43927" lon="0.73395">
        <ele>275</ele>
        <time>2019-10-23T11:04:42.000Z</time>
      </trkpt>
      <trkpt lat="43.43906" lon="0.73381">
        <ele>274</ele>
        <time>2019-10-23T11:05:3.000Z</time>
      </trkpt>
      <trkpt lat="43.43883" lon="0.73375">
        <ele>274</ele>
        <time>2019-10-23T11:05:21.000Z</time>
      </trkpt>
      <trkpt lat="43.43861" lon="0.73375">
        <ele>274</ele>
        <time>2019-10-23T11:05:37.000Z</time>
      </trkpt>
      <trkpt lat="43.43838" lon="0.73376">
        <ele>274</ele>
        <time>2019-10-23T11:05:55.000Z</time>
      </trkpt>
      <trkpt lat="43.43816" lon="0.7337">
        <ele>277</ele>
        <time>2019-10-23T11:07:31.000Z</time>
      </trkpt>
      <trkpt lat="43.43793" lon="0.73366">
        <ele>276</ele>
        <time>2019-10-23T11:08:25.000Z</time>
      </trkpt>
      <trkpt lat="43.43774" lon="0.73351">
        <ele>271</ele>
        <time>2019-10-23T11:08:54.000Z</time>
      </trkpt>
      <trkpt lat="43.43769" lon="0.73321">
        <ele>269</ele>
        <time>2019-10-23T11:09:14.000Z</time>
      </trkpt>
      <trkpt lat="43.43752" lon="0.733">
        <ele>266</ele>
        <time>2019-10-23T11:09:32.000Z</time>
      </trkpt>
      <trkpt lat="43.43733" lon="0.73284">
        <ele>263</ele>
        <time>2019-10-23T11:09:47.000Z</time>
      </trkpt>
      <trkpt lat="43.43712" lon="0.73268">
        <ele>262</ele>
        <time>2019-10-23T11:10:3.000Z</time>
      </trkpt>
      <trkpt lat="43.4369" lon="0.73261">
        <ele>262</ele>
        <time>2019-10-23T11:10:19.000Z</time>
      </trkpt>
      <trkpt lat="43.43669" lon="0.73276">
        <ele>261</ele>
        <time>2019-10-23T11:10:39.000Z</time>
      </trkpt>
      <trkpt lat="43.4365" lon="0.73295">
        <ele>262</ele>
        <time>2019-10-23T11:10:56.000Z</time>
      </trkpt>
      <trkpt lat="43.43631" lon="0.73316">
        <ele>261</ele>
        <time>2019-10-23T11:11:13.000Z</time>
      </trkpt>
      <trkpt lat="43.43612" lon="0.73333">
        <ele>261</ele>
        <time>2019-10-23T11:11:32.000Z</time>
      </trkpt>
      <trkpt lat="43.43595" lon="0.73354">
        <ele>262</ele>
        <time>2019-10-23T11:11:50.000Z</time>
      </trkpt>
      <trkpt lat="43.43581" lon="0.73379">
        <ele>262</ele>
        <time>2019-10-23T11:12:9.000Z</time>
      </trkpt>
      <trkpt lat="43.43568" lon="0.73406">
        <ele>264</ele>
        <time>2019-10-23T11:12:28.000Z</time>
      </trkpt>
      <trkpt lat="43.43555" lon="0.73431">
        <ele>263</ele>
        <time>2019-10-23T11:12:47.000Z</time>
      </trkpt>
      <trkpt lat="43.43538" lon="0.73452">
        <ele>262</ele>
        <time>2019-10-23T11:13:7.000Z</time>
      </trkpt>
      <trkpt lat="43.43522" lon="0.73475">
        <ele>261</ele>
        <time>2019-10-23T11:13:27.000Z</time>
      </trkpt>
      <trkpt lat="43.4351" lon="0.73503">
        <ele>263</ele>
        <time>2019-10-23T11:13:48.000Z</time>
      </trkpt>
      <trkpt lat="43.43489" lon="0.7352">
        <ele>262</ele>
        <time>2019-10-23T11:14:8.000Z</time>
      </trkpt>
      <trkpt lat="43.43473" lon="0.73544">
        <ele>264</ele>
        <time>2019-10-23T11:14:25.000Z</time>
      </trkpt>
      <trkpt lat="43.4346" lon="0.7357">
        <ele>265</ele>
        <time>2019-10-23T11:14:45.000Z</time>
      </trkpt>
      <trkpt lat="43.43443" lon="0.73593">
        <ele>267</ele>
        <time>2019-10-23T11:15:13.000Z</time>
      </trkpt>
      <trkpt lat="43.43426" lon="0.73615">
        <ele>266</ele>
        <time>2019-10-23T11:15:25.000Z</time>
      </trkpt>
      <trkpt lat="43.43406" lon="0.73631">
        <ele>266</ele>
        <time>2019-10-23T11:15:49.000Z</time>
      </trkpt>
      <trkpt lat="43.43384" lon="0.73642">
        <ele>268</ele>
        <time>2019-10-23T11:16:11.000Z</time>
      </trkpt>
      <trkpt lat="43.43363" lon="0.73657">
        <ele>267</ele>
        <time>2019-10-23T11:16:29.000Z</time>
      </trkpt>
      <trkpt lat="43.43341" lon="0.73662">
        <ele>268</ele>
        <time>2019-10-23T11:16:46.000Z</time>
      </trkpt>
      <trkpt lat="43.43319" lon="0.73672">
        <ele>269</ele>
        <time>2019-10-23T11:17:5.000Z</time>
      </trkpt>
      <trkpt lat="43.43296" lon="0.73675">
        <ele>270</ele>
        <time>2019-10-23T11:17:25.000Z</time>
      </trkpt>
      <trkpt lat="43.43273" lon="0.73675">
        <ele>269</ele>
        <time>2019-10-23T11:17:44.000Z</time>
      </trkpt>
      <trkpt lat="43.43251" lon="0.73686">
        <ele>267</ele>
        <time>2019-10-23T11:18:2.000Z</time>
      </trkpt>
      <trkpt lat="43.43227" lon="0.73685">
        <ele>268</ele>
        <time>2019-10-23T11:20:25.000Z</time>
      </trkpt>
      <trkpt lat="43.43204" lon="0.73678">
        <ele>267</ele>
        <time>2019-10-23T11:20:42.000Z</time>
      </trkpt>
      <trkpt lat="43.43181" lon="0.73672">
        <ele>268</ele>
        <time>2019-10-23T11:21:4.000Z</time>
      </trkpt>
      <trkpt lat="43.43158" lon="0.73666">
        <ele>268</ele>
        <time>2019-10-23T11:21:26.000Z</time>
      </trkpt>
      <trkpt lat="43.43136" lon="0.73658">
        <ele>269</ele>
        <time>2019-10-23T11:21:47.000Z</time>
      </trkpt>
      <trkpt lat="43.43113" lon="0.73649">
        <ele>269</ele>
        <time>2019-10-23T11:22:7.000Z</time>
      </trkpt>
      <trkpt lat="43.4309" lon="0.73642">
        <ele>267</ele>
        <time>2019-10-23T11:22:25.000Z</time>
      </trkpt>
      <trkpt lat="43.43068" lon="0.7363">
        <ele>265</ele>
        <time>2019-10-23T11:22:44.000Z</time>
      </trkpt>
      <trkpt lat="43.43046" lon="0.73619">
        <ele>264</ele>
        <time>2019-10-23T11:23:0.000Z</time>
      </trkpt>
      <trkpt lat="43.43024" lon="0.73624">
        <ele>262</ele>
        <time>2019-10-23T11:23:24.000Z</time>
      </trkpt>
      <trkpt lat="43.43022" lon="0.73593">
        <ele>262</ele>
        <time>2019-10-23T11:24:1.000Z</time>
      </trkpt>
      <trkpt lat="43.43015" lon="0.73563">
        <ele>262</ele>
        <time>2019-10-23T11:24:19.000Z</time>
      </trkpt>
      <trkpt lat="43.43004" lon="0.73536">
        <ele>262</ele>
        <time>2019-10-23T11:24:38.000Z</time>
      </trkpt>
      <trkpt lat="43.42993" lon="0.73508">
        <ele>262</ele>
        <time>2019-10-23T11:24:56.000Z</time>
      </trkpt>
      <trkpt lat="43.42984" lon="0.7348">
        <ele>262</ele>
        <time>2019-10-23T11:25:12.000Z</time>
      </trkpt>
      <trkpt lat="43.42972" lon="0.73453">
        <ele>261</ele>
        <time>2019-10-23T11:25:31.000Z</time>
      </trkpt>
      <trkpt lat="43.42962" lon="0.73424">
        <ele>262</ele>
        <time>2019-10-23T11:25:49.000Z</time>
      </trkpt>
      <trkpt lat="43.42948" lon="0.73397">
        <ele>261</ele>
        <time>2019-10-23T11:26:9.000Z</time>
      </trkpt>
      <trkpt lat="43.42933" lon="0.73372">
        <ele>262</ele>
        <time>2019-10-23T11:26:28.000Z</time>
      </trkpt>
      <trkpt lat="43.42916" lon="0.73348">
        <ele>262</ele>
        <time>2019-10-23T11:26:47.000Z</time>
      </trkpt>
      <trkpt lat="43.42901" lon="0.73325">
        <ele>262</ele>
        <time>2019-10-23T11:27:5.000Z</time>
      </trkpt>
      <trkpt lat="43.42888" lon="0.73299">
        <ele>262</ele>
        <time>2019-10-23T11:27:22.000Z</time>
      </trkpt>
      <trkpt lat="43.42873" lon="0.73276">
        <ele>262</ele>
        <time>2019-10-23T11:27:38.000Z</time>
      </trkpt>
      <trkpt lat="43.42859" lon="0.7325">
        <ele>261</ele>
        <time>2019-10-23T11:27:58.000Z</time>
      </trkpt>
      <trkpt lat="43.42835" lon="0.73247">
        <ele>259</ele>
        <time>2019-10-23T11:29:0.000Z</time>
      </trkpt>
      <trkpt lat="43.42813" lon="0.73256">
        <ele>259</ele>
        <time>2019-10-23T11:29:24.000Z</time>
      </trkpt>
      <trkpt lat="43.42794" lon="0.73274">
        <ele>260</ele>
        <time>2019-10-23T11:29:45.000Z</time>
      </trkpt>
      <trkpt lat="43.4277" lon="0.73272">
        <ele>261</ele>
        <time>2019-10-23T11:30:4.000Z</time>
      </trkpt>
      <trkpt lat="43.42748" lon="0.73279">
        <ele>263</ele>
        <time>2019-10-23T11:30:25.000Z</time>
      </trkpt>
      <trkpt lat="43.42727" lon="0.7329">
        <ele>265</ele>
        <time>2019-10-23T11:30:45.000Z</time>
      </trkpt>
      <trkpt lat="43.42706" lon="0.73305">
        <ele>267</ele>
        <time>2019-10-23T11:31:8.000Z</time>
      </trkpt>
      <trkpt lat="43.42683" lon="0.73305">
        <ele>269</ele>
        <time>2019-10-23T11:31:33.000Z</time>
      </trkpt>
      <trkpt lat="43.4266" lon="0.73299">
        <ele>271</ele>
        <time>2019-10-23T11:31:55.000Z</time>
      </trkpt>
      <trkpt lat="43.42639" lon="0.73309">
        <ele>272</ele>
        <time>2019-10-23T11:32:15.000Z</time>
      </trkpt>
      <trkpt lat="43.42619" lon="0.73324">
        <ele>273</ele>
        <time>2019-10-23T11:32:35.000Z</time>
      </trkpt>
      <trkpt lat="43.42598" lon="0.73335">
        <ele>275</ele>
        <time>2019-10-23T11:32:57.000Z</time>
      </trkpt>
      <trkpt lat="43.42576" lon="0.73346">
        <ele>277</ele>
        <time>2019-10-23T11:33:16.000Z</time>
      </trkpt>
      <trkpt lat="43.42557" lon="0.73362">
        <ele>278</ele>
        <time>2019-10-23T11:33:38.000Z</time>
      </trkpt>
      <trkpt lat="43.42537" lon="0.7338">
        <ele>279</ele>
        <time>2019-10-23T11:33:58.000Z</time>
      </trkpt>
      <trkpt lat="43.42516" lon="0.73393">
        <ele>280</ele>
        <time>2019-10-23T11:34:19.000Z</time>
      </trkpt>
      <trkpt lat="43.42496" lon="0.73408">
        <ele>281</ele>
        <time>2019-10-23T11:34:39.000Z</time>
      </trkpt>
      <trkpt lat="43.42478" lon="0.73429">
        <ele>282</ele>
        <time>2019-10-23T11:35:0.000Z</time>
      </trkpt>
      <trkpt lat="43.42463" lon="0.73454">
        <ele>283</ele>
        <time>2019-10-23T11:35:29.000Z</time>
      </trkpt>
      <trkpt lat="43.42449" lon="0.73479">
        <ele>281</ele>
        <time>2019-10-23T11:38:46.000Z</time>
      </trkpt>
      <trkpt lat="43.42442" lon="0.7351">
        <ele>280</ele>
        <time>2019-10-23T11:39:11.000Z</time>
      </trkpt>
      <trkpt lat="43.42439" lon="0.73541">
        <ele>278</ele>
        <time>2019-10-23T11:39:32.000Z</time>
      </trkpt>
      <trkpt lat="43.42439" lon="0.73573">
        <ele>276</ele>
        <time>2019-10-23T11:39:54.000Z</time>
      </trkpt>
      <trkpt lat="43.4246" lon="0.73587">
        <ele>273</ele>
        <time>2019-10-23T11:40:31.000Z</time>
      </trkpt>
      <trkpt lat="43.42483" lon="0.73589">
        <ele>272</ele>
        <time>2019-10-23T11:40:50.000Z</time>
      </trkpt>
      <trkpt lat="43.42506" lon="0.73583">
        <ele>274</ele>
        <time>2019-10-23T11:41:20.000Z</time>
      </trkpt>
      <trkpt lat="43.42529" lon="0.73586">
        <ele>275</ele>
        <time>2019-10-23T11:41:40.000Z</time>
      </trkpt>
      <trkpt lat="43.42553" lon="0.73587">
        <ele>277</ele>
        <time>2019-10-23T11:42:2.000Z</time>
      </trkpt>
      <trkpt lat="43.42575" lon="0.73591">
        <ele>279</ele>
        <time>2019-10-23T11:42:23.000Z</time>
      </trkpt>
      <trkpt lat="43.42599" lon="0.73594">
        <ele>281</ele>
        <time>2019-10-23T11:42:46.000Z</time>
      </trkpt>
      <trkpt lat="43.42621" lon="0.73595">
        <ele>282</ele>
        <time>2019-10-23T11:43:5.000Z</time>
      </trkpt>
      <trkpt lat="43.42645" lon="0.73599">
        <ele>282</ele>
        <time>2019-10-23T11:43:20.000Z</time>
      </trkpt>
      <trkpt lat="43.42667" lon="0.73603">
        <ele>282</ele>
        <time>2019-10-23T11:43:39.000Z</time>
      </trkpt>
      <trkpt lat="43.4269" lon="0.73603">
        <ele>283</ele>
        <time>2019-10-23T11:44:4.000Z</time>
      </trkpt>
      <trkpt lat="43.42713" lon="0.73599">
        <ele>283</ele>
        <time>2019-10-23T11:44:18.000Z</time>
      </trkpt>
      <trkpt lat="43.42736" lon="0.73593">
        <ele>284</ele>
        <time>2019-10-23T11:44:39.000Z</time>
      </trkpt>
      <trkpt lat="43.42758" lon="0.736">
        <ele>286</ele>
        <time>2019-10-23T11:45:4.000Z</time>
      </trkpt>
      <trkpt lat="43.42746" lon="0.73628">
        <ele>288</ele>
        <time>2019-10-23T11:45:42.000Z</time>
      </trkpt>
      <trkpt lat="43.42736" lon="0.73657">
        <ele>289</ele>
        <time>2019-10-23T11:45:59.000Z</time>
      </trkpt>
      <trkpt lat="43.42729" lon="0.73687">
        <ele>293</ele>
        <time>2019-10-23T11:46:28.000Z</time>
      </trkpt>
      <trkpt lat="43.42719" lon="0.73719">
        <ele>296</ele>
        <time>2019-10-23T11:46:54.000Z</time>
      </trkpt>
      <trkpt lat="43.42706" lon="0.73744">
        <ele>298</ele>
        <time>2019-10-23T11:47:14.000Z</time>
      </trkpt>
      <trkpt lat="43.4269" lon="0.73768">
        <ele>304</ele>
        <time>2019-10-23T11:47:52.000Z</time>
      </trkpt>
      <trkpt lat="43.42675" lon="0.73792">
        <ele>309</ele>
        <time>2019-10-23T11:48:24.000Z</time>
      </trkpt>
      <trkpt lat="43.42663" lon="0.7382">
        <ele>312</ele>
        <time>2019-10-23T11:48:55.000Z</time>
      </trkpt>
      <trkpt lat="43.42649" lon="0.73845">
        <ele>316</ele>
        <time>2019-10-23T11:49:31.000Z</time>
      </trkpt>
      <trkpt lat="43.42635" lon="0.7387">
        <ele>319</ele>
        <time>2019-10-23T11:49:54.000Z</time>
      </trkpt>
      <trkpt lat="43.42626" lon="0.739">
        <ele>324</ele>
        <time>2019-10-23T11:50:25.000Z</time>
      </trkpt>
      <trkpt lat="43.42618" lon="0.73931">
        <ele>328</ele>
        <time>2019-10-23T11:51:13.000Z</time>
      </trkpt>
      <trkpt lat="43.42615" lon="0.73961">
        <ele>329</ele>
        <time>2019-10-23T11:51:26.000Z</time>
      </trkpt>
      <trkpt lat="43.42613" lon="0.73993">
        <ele>331</ele>
        <time>2019-10-23T11:51:42.000Z</time>
      </trkpt>
      <trkpt lat="43.42615" lon="0.74023">
        <ele>332</ele>
        <time>2019-10-23T11:51:59.000Z</time>
      </trkpt>
      <trkpt lat="43.42621" lon="0.74054">
        <ele>333</ele>
        <time>2019-10-23T11:52:22.000Z</time>
      </trkpt>
      <trkpt lat="43.42619" lon="0.74085">
        <ele>335</ele>
        <time>2019-10-23T11:52:50.000Z</time>
      </trkpt>
      <trkpt lat="43.42613" lon="0.74115">
        <ele>336</ele>
        <time>2019-10-23T11:53:14.000Z</time>
      </trkpt>
      <trkpt lat="43.42607" lon="0.74145">
        <ele>337</ele>
        <time>2019-10-23T11:53:32.000Z</time>
      </trkpt>
      <trkpt lat="43.42596" lon="0.74173">
        <ele>336</ele>
        <time>2019-10-23T11:53:49.000Z</time>
      </trkpt>
      <trkpt lat="43.42585" lon="0.74201">
        <ele>337</ele>
        <time>2019-10-23T11:54:8.000Z</time>
      </trkpt>
      <trkpt lat="43.4257" lon="0.74228">
        <ele>339</ele>
        <time>2019-10-23T11:54:37.000Z</time>
      </trkpt>
      <trkpt lat="43.42559" lon="0.74255">
        <ele>340</ele>
        <time>2019-10-23T11:54:54.000Z</time>
      </trkpt>
      <trkpt lat="43.42548" lon="0.74282">
        <ele>341</ele>
        <time>2019-10-23T11:55:16.000Z</time>
      </trkpt>
      <trkpt lat="43.42536" lon="0.74309">
        <ele>342</ele>
        <time>2019-10-23T11:55:58.000Z</time>
      </trkpt>
      <trkpt lat="43.42527" lon="0.74338">
        <ele>344</ele>
        <time>2019-10-23T11:56:21.000Z</time>
      </trkpt>
      <trkpt lat="43.42517" lon="0.74367">
        <ele>345</ele>
        <time>2019-10-23T11:56:45.000Z</time>
      </trkpt>
      <trkpt lat="43.42507" lon="0.74396">
        <ele>346</ele>
        <time>2019-10-23T11:57:8.000Z</time>
      </trkpt>
      <trkpt lat="43.42498" lon="0.74424">
        <ele>347</ele>
        <time>2019-10-23T11:57:48.000Z</time>
      </trkpt>
      <trkpt lat="43.42492" lon="0.74455">
        <ele>348</ele>
        <time>2019-10-23T11:59:11.000Z</time>
      </trkpt>
      <trkpt lat="43.42482" lon="0.74483">
        <ele>348</ele>
        <time>2019-10-23T11:59:34.000Z</time>
      </trkpt>
      <trkpt lat="43.42474" lon="0.74513">
        <ele>348</ele>
        <time>2019-10-23T11:59:46.000Z</time>
      </trkpt>
      <trkpt lat="43.42463" lon="0.74541">
        <ele>348</ele>
        <time>2019-10-23T12:00:0.000Z</time>
      </trkpt>
      <trkpt lat="43.42453" lon="0.74568">
        <ele>348</ele>
        <time>2019-10-23T12:00:19.000Z</time>
      </trkpt>
      <trkpt lat="43.42439" lon="0.74594">
        <ele>350</ele>
        <time>2019-10-23T12:00:36.000Z</time>
      </trkpt>
      <trkpt lat="43.42431" lon="0.74625">
        <ele>351</ele>
        <time>2019-10-23T12:00:55.000Z</time>
      </trkpt>
      <trkpt lat="43.42423" lon="0.74655">
        <ele>352</ele>
        <time>2019-10-23T12:01:15.000Z</time>
      </trkpt>
      <trkpt lat="43.42414" lon="0.74686">
        <ele>352</ele>
        <time>2019-10-23T12:01:34.000Z</time>
      </trkpt>
      <trkpt lat="43.42406" lon="0.74716">
        <ele>353</ele>
        <time>2019-10-23T12:01:51.000Z</time>
      </trkpt>
      <trkpt lat="43.42395" lon="0.74744">
        <ele>353</ele>
        <time>2019-10-23T12:02:8.000Z</time>
      </trkpt>
      <trkpt lat="43.42386" lon="0.74772">
        <ele>354</ele>
        <time>2019-10-23T12:02:29.000Z</time>
      </trkpt>
      <trkpt lat="43.42379" lon="0.74802">
        <ele>355</ele>
        <time>2019-10-23T12:02:51.000Z</time>
      </trkpt>
      <trkpt lat="43.42372" lon="0.74832">
        <ele>358</ele>
        <time>2019-10-23T12:03:13.000Z</time>
      </trkpt>
      <trkpt lat="43.42361" lon="0.74862">
        <ele>360</ele>
        <time>2019-10-23T12:03:30.000Z</time>
      </trkpt>
      <trkpt lat="43.42344" lon="0.74884">
        <ele>359</ele>
        <time>2019-10-23T12:03:48.000Z</time>
      </trkpt>
      <trkpt lat="43.42365" lon="0.74899">
        <ele>357</ele>
        <time>2019-10-23T12:07:32.000Z</time>
      </trkpt>
      <trkpt lat="43.42389" lon="0.74898">
        <ele>355</ele>
        <time>2019-10-23T12:07:53.000Z</time>
      </trkpt>
      <trkpt lat="43.4241" lon="0.74912">
        <ele>352</ele>
        <time>2019-10-23T12:08:14.000Z</time>
      </trkpt>
      <trkpt lat="43.42428" lon="0.74932">
        <ele>349</ele>
        <time>2019-10-23T12:08:35.000Z</time>
      </trkpt>
      <trkpt lat="43.42451" lon="0.74942">
        <ele>347</ele>
        <time>2019-10-23T12:08:51.000Z</time>
      </trkpt>
      <trkpt lat="43.42473" lon="0.74949">
        <ele>344</ele>
        <time>2019-10-23T12:09:8.000Z</time>
      </trkpt>
      <trkpt lat="43.42497" lon="0.74951">
        <ele>342</ele>
        <time>2019-10-23T12:09:24.000Z</time>
      </trkpt>
      <trkpt lat="43.4252" lon="0.74949">
        <ele>340</ele>
        <time>2019-10-23T12:09:42.000Z</time>
      </trkpt>
      <trkpt lat="43.42543" lon="0.74945">
        <ele>337</ele>
        <time>2019-10-23T12:10:1.000Z</time>
      </trkpt>
      <trkpt lat="43.42566" lon="0.74944">
        <ele>336</ele>
        <time>2019-10-23T12:10:20.000Z</time>
      </trkpt>
      <trkpt lat="43.42589" lon="0.7494">
        <ele>334</ele>
        <time>2019-10-23T12:10:39.000Z</time>
      </trkpt>
      <trkpt lat="43.42612" lon="0.7494">
        <ele>333</ele>
        <time>2019-10-23T12:10:56.000Z</time>
      </trkpt>
      <trkpt lat="43.42635" lon="0.74941">
        <ele>332</ele>
        <time>2019-10-23T12:11:15.000Z</time>
      </trkpt>
      <trkpt lat="43.42658" lon="0.74945">
        <ele>332</ele>
        <time>2019-10-23T12:11:34.000Z</time>
      </trkpt>
      <trkpt lat="43.4268" lon="0.74956">
        <ele>332</ele>
        <time>2019-10-23T12:11:50.000Z</time>
      </trkpt>
      <trkpt lat="43.427" lon="0.7497">
        <ele>333</ele>
        <time>2019-10-23T12:12:9.000Z</time>
      </trkpt>
      <trkpt lat="43.42722" lon="0.74981">
        <ele>335</ele>
        <time>2019-10-23T12:12:27.000Z</time>
      </trkpt>
      <trkpt lat="43.42743" lon="0.74993">
        <ele>336</ele>
        <time>2019-10-23T12:12:46.000Z</time>
      </trkpt>
      <trkpt lat="43.42765" lon="0.74998">
        <ele>337</ele>
        <time>2019-10-23T12:13:4.000Z</time>
      </trkpt>
      <trkpt lat="43.42788" lon="0.75006">
        <ele>337</ele>
        <time>2019-10-23T12:13:23.000Z</time>
      </trkpt>
      <trkpt lat="43.42812" lon="0.75006">
        <ele>338</ele>
        <time>2019-10-23T12:13:39.000Z</time>
      </trkpt>
      <trkpt lat="43.42835" lon="0.75009">
        <ele>338</ele>
        <time>2019-10-23T12:13:57.000Z</time>
      </trkpt>
      <trkpt lat="43.42859" lon="0.75011">
        <ele>338</ele>
        <time>2019-10-23T12:14:16.000Z</time>
      </trkpt>
      <trkpt lat="43.42881" lon="0.75011">
        <ele>338</ele>
        <time>2019-10-23T12:14:36.000Z</time>
      </trkpt>
      <trkpt lat="43.42902" lon="0.75024">
        <ele>340</ele>
        <time>2019-10-23T12:14:59.000Z</time>
      </trkpt>
      <trkpt lat="43.4292" lon="0.75005">
        <ele>342</ele>
        <time>2019-10-23T12:15:25.000Z</time>
      </trkpt>
      <trkpt lat="43.42937" lon="0.74984">
        <ele>345</ele>
        <time>2019-10-23T12:15:44.000Z</time>
      </trkpt>
      <trkpt lat="43.42958" lon="0.74971">
        <ele>344</ele>
        <time>2019-10-23T12:16:6.000Z</time>
      </trkpt>
      <trkpt lat="43.42979" lon="0.74956">
        <ele>344</ele>
        <time>2019-10-23T12:16:25.000Z</time>
      </trkpt>
      <trkpt lat="43.42996" lon="0.74935">
        <ele>344</ele>
        <time>2019-10-23T12:16:46.000Z</time>
      </trkpt>
      <trkpt lat="43.43009" lon="0.74909">
        <ele>345</ele>
        <time>2019-10-23T12:17:6.000Z</time>
      </trkpt>
      <trkpt lat="43.43021" lon="0.74882">
        <ele>346</ele>
        <time>2019-10-23T12:17:25.000Z</time>
      </trkpt>
      <trkpt lat="43.43038" lon="0.74862">
        <ele>348</ele>
        <time>2019-10-23T12:17:47.000Z</time>
      </trkpt>
      <trkpt lat="43.43055" lon="0.7484">
        <ele>349</ele>
        <time>2019-10-23T12:18:10.000Z</time>
      </trkpt>
      <trkpt lat="43.43068" lon="0.74814">
        <ele>350</ele>
        <time>2019-10-23T12:18:29.000Z</time>
      </trkpt>
      <trkpt lat="43.43084" lon="0.74792">
        <ele>349</ele>
        <time>2019-10-23T12:18:48.000Z</time>
      </trkpt>
      <trkpt lat="43.43098" lon="0.74766">
        <ele>349</ele>
        <time>2019-10-23T12:19:7.000Z</time>
      </trkpt>
      <trkpt lat="43.43114" lon="0.74741">
        <ele>348</ele>
        <time>2019-10-23T12:19:28.000Z</time>
      </trkpt>
      <trkpt lat="43.43123" lon="0.74712">
        <ele>348</ele>
        <time>2019-10-23T12:19:42.000Z</time>
      </trkpt>
      <trkpt lat="43.43133" lon="0.74683">
        <ele>349</ele>
        <time>2019-10-23T12:20:2.000Z</time>
      </trkpt>
      <trkpt lat="43.43142" lon="0.74653">
        <ele>349</ele>
        <time>2019-10-23T12:20:20.000Z</time>
      </trkpt>
      <trkpt lat="43.43146" lon="0.74622">
        <ele>349</ele>
        <time>2019-10-23T12:20:41.000Z</time>
      </trkpt>
      <trkpt lat="43.43157" lon="0.74594">
        <ele>350</ele>
        <time>2019-10-23T12:20:58.000Z</time>
      </trkpt>
      <trkpt lat="43.43172" lon="0.74568">
        <ele>350</ele>
        <time>2019-10-23T12:21:17.000Z</time>
      </trkpt>
      <trkpt lat="43.43184" lon="0.74541">
        <ele>351</ele>
        <time>2019-10-23T12:21:38.000Z</time>
      </trkpt>
      <trkpt lat="43.43201" lon="0.74521">
        <ele>349</ele>
        <time>2019-10-23T12:21:57.000Z</time>
      </trkpt>
      <trkpt lat="43.43223" lon="0.74513">
        <ele>347</ele>
        <time>2019-10-23T12:22:14.000Z</time>
      </trkpt>
      <trkpt lat="43.43245" lon="0.74504">
        <ele>345</ele>
        <time>2019-10-23T12:22:34.000Z</time>
      </trkpt>
      <trkpt lat="43.43268" lon="0.74495">
        <ele>342</ele>
        <time>2019-10-23T12:22:58.000Z</time>
      </trkpt>
      <trkpt lat="43.43291" lon="0.74492">
        <ele>340</ele>
        <time>2019-10-23T12:23:15.000Z</time>
      </trkpt>
      <trkpt lat="43.43313" lon="0.74502">
        <ele>339</ele>
        <time>2019-10-23T12:23:35.000Z</time>
      </trkpt>
      <trkpt lat="43.43333" lon="0.74517">
        <ele>338</ele>
        <time>2019-10-23T12:23:55.000Z</time>
      </trkpt>
      <trkpt lat="43.43356" lon="0.74521">
        <ele>341</ele>
        <time>2019-10-23T12:24:20.000Z</time>
      </trkpt>
      <trkpt lat="43.43379" lon="0.74513">
        <ele>342</ele>
        <time>2019-10-23T12:24:58.000Z</time>
      </trkpt>
      <trkpt lat="43.43401" lon="0.74513">
        <ele>341</ele>
        <time>2019-10-23T12:25:18.000Z</time>
      </trkpt>
      <trkpt lat="43.43421" lon="0.74496">
        <ele>341</ele>
        <time>2019-10-23T12:25:40.000Z</time>
      </trkpt>
      <trkpt lat="43.43441" lon="0.74483">
        <ele>340</ele>
        <time>2019-10-23T12:26:0.000Z</time>
      </trkpt>
      <trkpt lat="43.43445" lon="0.74452">
        <ele>341</ele>
        <time>2019-10-23T12:26:23.000Z</time>
      </trkpt>
      <trkpt lat="43.43462" lon="0.74431">
        <ele>339</ele>
        <time>2019-10-23T12:26:58.000Z</time>
      </trkpt>
      <trkpt lat="43.43485" lon="0.74418">
        <ele>336</ele>
        <time>2019-10-23T12:27:27.000Z</time>
      </trkpt>
      <trkpt lat="43.43507" lon="0.74419">
        <ele>333</ele>
        <time>2019-10-23T12:27:41.000Z</time>
      </trkpt>
      <trkpt lat="43.43531" lon="0.74415">
        <ele>331</ele>
        <time>2019-10-23T12:28:3.000Z</time>
      </trkpt>
      <trkpt lat="43.43553" lon="0.74407">
        <ele>328</ele>
        <time>2019-10-23T12:28:25.000Z</time>
      </trkpt>
      <trkpt lat="43.43575" lon="0.74398">
        <ele>327</ele>
        <time>2019-10-23T12:28:44.000Z</time>
      </trkpt>
      <trkpt lat="43.43598" lon="0.74403">
        <ele>326</ele>
        <time>2019-10-23T12:29:3.000Z</time>
      </trkpt>
      <trkpt lat="43.43618" lon="0.74416">
        <ele>326</ele>
        <time>2019-10-23T12:29:23.000Z</time>
      </trkpt>
      <trkpt lat="43.43641" lon="0.74423">
        <ele>325</ele>
        <time>2019-10-23T12:29:47.000Z</time>
      </trkpt>
      <trkpt lat="43.43663" lon="0.7443">
        <ele>326</ele>
        <time>2019-10-23T12:30:7.000Z</time>
      </trkpt>
      <trkpt lat="43.43687" lon="0.7443">
        <ele>327</ele>
        <time>2019-10-23T12:30:31.000Z</time>
      </trkpt>
      <trkpt lat="43.43709" lon="0.74434">
        <ele>330</ele>
        <time>2019-10-23T12:31:1.000Z</time>
      </trkpt>
      <trkpt lat="43.43732" lon="0.74439">
        <ele>332</ele>
        <time>2019-10-23T12:31:18.000Z</time>
      </trkpt>
      <trkpt lat="43.43754" lon="0.74438">
        <ele>335</ele>
        <time>2019-10-23T12:31:36.000Z</time>
      </trkpt>
      <trkpt lat="43.43777" lon="0.74433">
        <ele>337</ele>
        <time>2019-10-23T12:31:59.000Z</time>
      </trkpt>
      <trkpt lat="43.43799" lon="0.74423">
        <ele>338</ele>
        <time>2019-10-23T12:32:42.000Z</time>
      </trkpt>
      <trkpt lat="43.43822" lon="0.74417">
        <ele>334</ele>
        <time>2019-10-23T12:33:16.000Z</time>
      </trkpt>
      <trkpt lat="43.43845" lon="0.74416">
        <ele>331</ele>
        <time>2019-10-23T12:33:38.000Z</time>
      </trkpt>
      <trkpt lat="43.43867" lon="0.7442">
        <ele>329</ele>
        <time>2019-10-23T12:34:3.000Z</time>
      </trkpt>
      <trkpt lat="43.43889" lon="0.74431">
        <ele>325</ele>
        <time>2019-10-23T12:34:27.000Z</time>
      </trkpt>
      <trkpt lat="43.43909" lon="0.74446">
        <ele>323</ele>
        <time>2019-10-23T12:34:52.000Z</time>
      </trkpt>
      <trkpt lat="43.43933" lon="0.7444">
        <ele>320</ele>
        <time>2019-10-23T12:35:15.000Z</time>
      </trkpt>
      <trkpt lat="43.43957" lon="0.74436">
        <ele>320</ele>
        <time>2019-10-23T12:35:35.000Z</time>
      </trkpt>
      <trkpt lat="43.43979" lon="0.7444">
        <ele>322</ele>
        <time>2019-10-23T12:36:0.000Z</time>
      </trkpt>
      <trkpt lat="43.44002" lon="0.74435">
        <ele>322</ele>
        <time>2019-10-23T12:36:24.000Z</time>
      </trkpt>
      <trkpt lat="43.44025" lon="0.74433">
        <ele>321</ele>
        <time>2019-10-23T12:36:41.000Z</time>
      </trkpt>
      <trkpt lat="43.44047" lon="0.74426">
        <ele>319</ele>
        <time>2019-10-23T12:36:55.000Z</time>
      </trkpt>
      <trkpt lat="43.4407" lon="0.74431">
        <ele>321</ele>
        <time>2019-10-23T12:40:10.000Z</time>
      </trkpt>
      <trkpt lat="43.44091" lon="0.7442">
        <ele>320</ele>
        <time>2019-10-23T12:40:32.000Z</time>
      </trkpt>
      <trkpt lat="43.44091" lon="0.74389">
        <ele>319</ele>
        <time>2019-10-23T12:40:55.000Z</time>
      </trkpt>
      <trkpt lat="43.44104" lon="0.74362">
        <ele>318</ele>
        <time>2019-10-23T12:41:14.000Z</time>
      </trkpt>
      <trkpt lat="43.44118" lon="0.74336">
        <ele>320</ele>
        <time>2019-10-23T12:41:37.000Z</time>
      </trkpt>
      <trkpt lat="43.44132" lon="0.7431">
        <ele>323</ele>
        <time>2019-10-23T12:42:15.000Z</time>
      </trkpt>
      <trkpt lat="43.44147" lon="0.74286">
        <ele>324</ele>
        <time>2019-10-23T12:42:30.000Z</time>
      </trkpt>
      <trkpt lat="43.44159" lon="0.74259">
        <ele>324</ele>
        <time>2019-10-23T12:42:48.000Z</time>
      </trkpt>
      <trkpt lat="43.44172" lon="0.74232">
        <ele>325</ele>
        <time>2019-10-23T12:43:5.000Z</time>
      </trkpt>
      <trkpt lat="43.44183" lon="0.74205">
        <ele>325</ele>
        <time>2019-10-23T12:43:25.000Z</time>
      </trkpt>
      <trkpt lat="43.44193" lon="0.74176">
        <ele>324</ele>
        <time>2019-10-23T12:43:44.000Z</time>
      </trkpt>
      <trkpt lat="43.44201" lon="0.74147">
        <ele>323</ele>
        <time>2019-10-23T12:44:4.000Z</time>
      </trkpt>
      <trkpt lat="43.4421" lon="0.74118">
        <ele>322</ele>
        <time>2019-10-23T12:44:24.000Z</time>
      </trkpt>
      <trkpt lat="43.44222" lon="0.7409">
        <ele>318</ele>
        <time>2019-10-23T12:44:50.000Z</time>
      </trkpt>
      <trkpt lat="43.44243" lon="0.74077">
        <ele>317</ele>
        <time>2019-10-23T12:45:9.000Z</time>
      </trkpt>
      <trkpt lat="43.44265" lon="0.74079">
        <ele>313</ele>
        <time>2019-10-23T12:45:47.000Z</time>
      </trkpt>
      <trkpt lat="43.44285" lon="0.74096">
        <ele>310</ele>
        <time>2019-10-23T12:46:46.000Z</time>
      </trkpt>
      <trkpt lat="43.44304" lon="0.74113">
        <ele>307</ele>
        <time>2019-10-23T12:47:1.000Z</time>
      </trkpt>
      <trkpt lat="43.44326" lon="0.74127">
        <ele>304</ele>
        <time>2019-10-23T12:47:15.000Z</time>
      </trkpt>
      <trkpt lat="43.44349" lon="0.74138">
        <ele>302</ele>
        <time>2019-10-23T12:47:31.000Z</time>
      </trkpt>
      <trkpt lat="43.4437" lon="0.74154">
        <ele>299</ele>
        <time>2019-10-23T12:47:47.000Z</time>
      </trkpt>
      <trkpt lat="43.44389" lon="0.7417">
        <ele>295</ele>
        <time>2019-10-23T12:48:8.000Z</time>
      </trkpt>
      <trkpt lat="43.44407" lon="0.7419">
        <ele>293</ele>
        <time>2019-10-23T12:48:22.000Z</time>
      </trkpt>
      <trkpt lat="43.44428" lon="0.74207">
        <ele>290</ele>
        <time>2019-10-23T12:48:41.000Z</time>
      </trkpt>
      <trkpt lat="43.44449" lon="0.74218">
        <ele>287</ele>
        <time>2019-10-23T12:48:57.000Z</time>
      </trkpt>
      <trkpt lat="43.4447" lon="0.7423">
        <ele>286</ele>
        <time>2019-10-23T12:49:16.000Z</time>
      </trkpt>
      <trkpt lat="43.44493" lon="0.74236">
        <ele>284</ele>
        <time>2019-10-23T12:49:35.000Z</time>
      </trkpt>
      <trkpt lat="43.44516" lon="0.74233">
        <ele>282</ele>
        <time>2019-10-23T12:49:56.000Z</time>
      </trkpt>
      <trkpt lat="43.44539" lon="0.74236">
        <ele>282</ele>
        <time>2019-10-23T12:50:13.000Z</time>
      </trkpt>
      <trkpt lat="43.44561" lon="0.74226">
        <ele>281</ele>
        <time>2019-10-23T12:53:30.000Z</time>
      </trkpt>
      <trkpt lat="43.44584" lon="0.74218">
        <ele>279</ele>
        <time>2019-10-23T12:53:50.000Z</time>
      </trkpt>
      <trkpt lat="43.44607" lon="0.74222">
        <ele>278</ele>
        <time>2019-10-23T12:54:11.000Z</time>
      </trkpt>
      <trkpt lat="43.44616" lon="0.74218">
        <ele>268</ele>
        <time>2019-10-23T13:18:17.000Z</time>
      </trkpt>
      <trkpt lat="43.44637" lon="0.74231">
        <ele>262</ele>
        <time>2019-10-23T13:20:26.000Z</time>
      </trkpt>
      <trkpt lat="43.4466" lon="0.74227">
        <ele>259</ele>
        <time>2019-10-23T13:20:48.000Z</time>
      </trkpt>
      <trkpt lat="43.4468" lon="0.74242">
        <ele>256</ele>
        <time>2019-10-23T13:21:14.000Z</time>
      </trkpt>
      <trkpt lat="43.44689" lon="0.74271">
        <ele>251</ele>
        <time>2019-10-23T13:21:45.000Z</time>
      </trkpt>
      <trkpt lat="43.44701" lon="0.74298">
        <ele>248</ele>
        <time>2019-10-23T13:22:9.000Z</time>
      </trkpt>
      <trkpt lat="43.44724" lon="0.74295">
        <ele>247</ele>
        <time>2019-10-23T13:22:34.000Z</time>
      </trkpt>
      <trkpt lat="43.44745" lon="0.74284">
        <ele>247</ele>
        <time>2019-10-23T13:22:51.000Z</time>
      </trkpt>
      <trkpt lat="43.44766" lon="0.74271">
        <ele>246</ele>
        <time>2019-10-23T13:23:12.000Z</time>
      </trkpt>
      <trkpt lat="43.44766" lon="0.74303">
        <ele>242</ele>
        <time>2019-10-23T13:26:12.000Z</time>
      </trkpt>
      <trkpt lat="43.44782" lon="0.74326">
        <ele>243</ele>
        <time>2019-10-23T13:27:31.000Z</time>
      </trkpt>
      <trkpt lat="43.44804" lon="0.74336">
        <ele>243</ele>
        <time>2019-10-23T13:27:50.000Z</time>
      </trkpt>
      <trkpt lat="43.44825" lon="0.74348">
        <ele>243</ele>
        <time>2019-10-23T13:28:7.000Z</time>
      </trkpt>
      <trkpt lat="43.44847" lon="0.7436">
        <ele>243</ele>
        <time>2019-10-23T13:28:25.000Z</time>
      </trkpt>
      <trkpt lat="43.44868" lon="0.74373">
        <ele>244</ele>
        <time>2019-10-23T13:28:44.000Z</time>
      </trkpt>
      <trkpt lat="43.44889" lon="0.74385">
        <ele>245</ele>
        <time>2019-10-23T13:29:4.000Z</time>
      </trkpt>
      <trkpt lat="43.44906" lon="0.74405">
        <ele>245</ele>
        <time>2019-10-23T13:29:25.000Z</time>
      </trkpt>
      <trkpt lat="43.44919" lon="0.74432">
        <ele>244</ele>
        <time>2019-10-23T13:29:43.000Z</time>
      </trkpt>
      <trkpt lat="43.44933" lon="0.74457">
        <ele>245</ele>
        <time>2019-10-23T13:30:4.000Z</time>
      </trkpt>
      <trkpt lat="43.4495" lon="0.74478">
        <ele>247</ele>
        <time>2019-10-23T13:30:21.000Z</time>
      </trkpt>
      <trkpt lat="43.44963" lon="0.74503">
        <ele>247</ele>
        <time>2019-10-23T13:30:43.000Z</time>
      </trkpt>
      <trkpt lat="43.44979" lon="0.74526">
        <ele>247</ele>
        <time>2019-10-23T13:31:1.000Z</time>
      </trkpt>
      <trkpt lat="43.45" lon="0.74539">
        <ele>248</ele>
        <time>2019-10-23T13:31:23.000Z</time>
      </trkpt>
      <trkpt lat="43.45018" lon="0.7452">
        <ele>249</ele>
        <time>2019-10-23T13:31:44.000Z</time>
      </trkpt>
      <trkpt lat="43.45025" lon="0.74489">
        <ele>251</ele>
        <time>2019-10-23T13:32:7.000Z</time>
      </trkpt>
      <trkpt lat="43.45037" lon="0.74517">
        <ele>252</ele>
        <time>2019-10-23T13:32:49.000Z</time>
      </trkpt>
      <trkpt lat="43.45042" lon="0.74548">
        <ele>252</ele>
        <time>2019-10-23T13:33:10.000Z</time>
      </trkpt>
      <trkpt lat="43.45048" lon="0.74578">
        <ele>252</ele>
        <time>2019-10-23T13:33:28.000Z</time>
      </trkpt>
      <trkpt lat="43.45052" lon="0.74609">
        <ele>250</ele>
        <time>2019-10-23T13:33:50.000Z</time>
      </trkpt>
      <trkpt lat="43.45059" lon="0.74639">
        <ele>250</ele>
        <time>2019-10-23T13:34:8.000Z</time>
      </trkpt>
      <trkpt lat="43.45067" lon="0.74667">
        <ele>251</ele>
        <time>2019-10-23T13:34:30.000Z</time>
      </trkpt>
      <trkpt lat="43.4509" lon="0.74659">
        <ele>252</ele>
        <time>2019-10-23T13:34:49.000Z</time>
      </trkpt>
      <trkpt lat="43.45112" lon="0.74655">
        <ele>253</ele>
        <time>2019-10-23T13:35:10.000Z</time>
      </trkpt>
      <trkpt lat="43.45135" lon="0.74655">
        <ele>254</ele>
        <time>2019-10-23T13:35:29.000Z</time>
      </trkpt>
      <trkpt lat="43.45158" lon="0.74662">
        <ele>256</ele>
        <time>2019-10-23T13:35:51.000Z</time>
      </trkpt>
      <trkpt lat="43.45181" lon="0.7466">
        <ele>257</ele>
        <time>2019-10-23T13:36:16.000Z</time>
      </trkpt>
      <trkpt lat="43.45204" lon="0.74662">
        <ele>259</ele>
        <time>2019-10-23T13:36:37.000Z</time>
      </trkpt>
      <trkpt lat="43.45227" lon="0.74666">
        <ele>261</ele>
        <time>2019-10-23T13:37:2.000Z</time>
      </trkpt>
      <trkpt lat="43.45248" lon="0.74678">
        <ele>263</ele>
        <time>2019-10-23T13:37:29.000Z</time>
      </trkpt>
      <trkpt lat="43.45268" lon="0.74693">
        <ele>264</ele>
        <time>2019-10-23T13:37:49.000Z</time>
      </trkpt>
      <trkpt lat="43.45291" lon="0.74701">
        <ele>267</ele>
        <time>2019-10-23T13:38:23.000Z</time>
      </trkpt>
      <trkpt lat="43.45312" lon="0.74712">
        <ele>268</ele>
        <time>2019-10-23T13:38:37.000Z</time>
      </trkpt>
      <trkpt lat="43.45334" lon="0.74721">
        <ele>271</ele>
        <time>2019-10-23T13:38:56.000Z</time>
      </trkpt>
      <trkpt lat="43.45356" lon="0.74732">
        <ele>272</ele>
        <time>2019-10-23T13:39:18.000Z</time>
      </trkpt>
      <trkpt lat="43.45376" lon="0.74747">
        <ele>274</ele>
        <time>2019-10-23T13:39:52.000Z</time>
      </trkpt>
      <trkpt lat="43.45398" lon="0.74758">
        <ele>276</ele>
        <time>2019-10-23T13:40:7.000Z</time>
      </trkpt>
      <trkpt lat="43.45419" lon="0.74768">
        <ele>280</ele>
        <time>2019-10-23T13:40:32.000Z</time>
      </trkpt>
      <trkpt lat="43.45436" lon="0.74791">
        <ele>282</ele>
        <time>2019-10-23T13:40:55.000Z</time>
      </trkpt>
      <trkpt lat="43.45456" lon="0.74806">
        <ele>286</ele>
        <time>2019-10-23T13:41:32.000Z</time>
      </trkpt>
      <trkpt lat="43.45474" lon="0.74826">
        <ele>290</ele>
        <time>2019-10-23T13:41:57.000Z</time>
      </trkpt>
      <trkpt lat="43.45483" lon="0.74854">
        <ele>297</ele>
        <time>2019-10-23T13:42:31.000Z</time>
      </trkpt>
      <trkpt lat="43.45469" lon="0.7488">
        <ele>302</ele>
        <time>2019-10-23T13:43:10.000Z</time>
      </trkpt>
      <trkpt lat="43.4546" lon="0.74909">
        <ele>304</ele>
        <time>2019-10-23T13:43:35.000Z</time>
      </trkpt>
      <trkpt lat="43.4545" lon="0.74936">
        <ele>306</ele>
        <time>2019-10-23T13:43:59.000Z</time>
      </trkpt>
      <trkpt lat="43.45443" lon="0.74967">
        <ele>308</ele>
        <time>2019-10-23T13:44:27.000Z</time>
      </trkpt>
      <trkpt lat="43.45441" lon="0.74998">
        <ele>309</ele>
        <time>2019-10-23T13:44:49.000Z</time>
      </trkpt>
      <trkpt lat="43.45437" lon="0.75029">
        <ele>307</ele>
        <time>2019-10-23T13:45:9.000Z</time>
      </trkpt>
      <trkpt lat="43.45442" lon="0.75061">
        <ele>308</ele>
        <time>2019-10-23T13:45:25.000Z</time>
      </trkpt>
      <trkpt lat="43.45453" lon="0.75089">
        <ele>309</ele>
        <time>2019-10-23T13:45:44.000Z</time>
      </trkpt>
      <trkpt lat="43.45464" lon="0.75116">
        <ele>310</ele>
        <time>2019-10-23T13:46:6.000Z</time>
      </trkpt>
      <trkpt lat="43.45474" lon="0.75143">
        <ele>312</ele>
        <time>2019-10-23T13:46:30.000Z</time>
      </trkpt>
      <trkpt lat="43.45486" lon="0.75171">
        <ele>315</ele>
        <time>2019-10-23T13:46:53.000Z</time>
      </trkpt>
      <trkpt lat="43.45493" lon="0.75202">
        <ele>315</ele>
        <time>2019-10-23T13:48:44.000Z</time>
      </trkpt>
      <trkpt lat="43.45506" lon="0.75228">
        <ele>316</ele>
        <time>2019-10-23T13:49:4.000Z</time>
      </trkpt>
      <trkpt lat="43.45524" lon="0.75246">
        <ele>317</ele>
        <time>2019-10-23T13:49:22.000Z</time>
      </trkpt>
      <trkpt lat="43.45546" lon="0.75259">
        <ele>317</ele>
        <time>2019-10-23T13:49:41.000Z</time>
      </trkpt>
      <trkpt lat="43.45564" lon="0.75277">
        <ele>318</ele>
        <time>2019-10-23T13:50:2.000Z</time>
      </trkpt>
      <trkpt lat="43.45582" lon="0.75296">
        <ele>320</ele>
        <time>2019-10-23T13:50:24.000Z</time>
      </trkpt>
      <trkpt lat="43.456" lon="0.75316">
        <ele>322</ele>
        <time>2019-10-23T13:50:47.000Z</time>
      </trkpt>
      <trkpt lat="43.45618" lon="0.75336">
        <ele>325</ele>
        <time>2019-10-23T13:51:9.000Z</time>
      </trkpt>
      <trkpt lat="43.45636" lon="0.75355">
        <ele>329</ele>
        <time>2019-10-23T13:51:31.000Z</time>
      </trkpt>
      <trkpt lat="43.45656" lon="0.75372">
        <ele>334</ele>
        <time>2019-10-23T13:52:5.000Z</time>
      </trkpt>
      <trkpt lat="43.45673" lon="0.75392">
        <ele>336</ele>
        <time>2019-10-23T13:52:25.000Z</time>
      </trkpt>
      <trkpt lat="43.45692" lon="0.75409">
        <ele>337</ele>
        <time>2019-10-23T13:52:44.000Z</time>
      </trkpt>
      <trkpt lat="43.45711" lon="0.75426">
        <ele>337</ele>
        <time>2019-10-23T13:53:5.000Z</time>
      </trkpt>
      <trkpt lat="43.45729" lon="0.75446">
        <ele>333</ele>
        <time>2019-10-23T13:53:32.000Z</time>
      </trkpt>
      <trkpt lat="43.45744" lon="0.75471">
        <ele>328</ele>
        <time>2019-10-23T13:53:57.000Z</time>
      </trkpt>
      <trkpt lat="43.45764" lon="0.75489">
        <ele>324</ele>
        <time>2019-10-23T13:54:21.000Z</time>
      </trkpt>
      <trkpt lat="43.45784" lon="0.75505">
        <ele>321</ele>
        <time>2019-10-23T13:54:37.000Z</time>
      </trkpt>
      <trkpt lat="43.45806" lon="0.75515">
        <ele>318</ele>
        <time>2019-10-23T13:54:57.000Z</time>
      </trkpt>
      <trkpt lat="43.45829" lon="0.75513">
        <ele>315</ele>
        <time>2019-10-23T13:55:21.000Z</time>
      </trkpt>
      <trkpt lat="43.45852" lon="0.75508">
        <ele>312</ele>
        <time>2019-10-23T13:55:45.000Z</time>
      </trkpt>
      <trkpt lat="43.45874" lon="0.75515">
        <ele>310</ele>
        <time>2019-10-23T13:56:4.000Z</time>
      </trkpt>
      <trkpt lat="43.45897" lon="0.75511">
        <ele>308</ele>
        <time>2019-10-23T13:56:23.000Z</time>
      </trkpt>
      <trkpt lat="43.45916" lon="0.75492">
        <ele>310</ele>
        <time>2019-10-23T13:56:48.000Z</time>
      </trkpt>
      <trkpt lat="43.4594" lon="0.75495">
        <ele>311</ele>
        <time>2019-10-23T13:57:11.000Z</time>
      </trkpt>
      <trkpt lat="43.45962" lon="0.75509">
        <ele>311</ele>
        <time>2019-10-23T13:57:27.000Z</time>
      </trkpt>
      <trkpt lat="43.45983" lon="0.75523">
        <ele>309</ele>
        <time>2019-10-23T13:57:45.000Z</time>
      </trkpt>
      <trkpt lat="43.46005" lon="0.75526">
        <ele>307</ele>
        <time>2019-10-23T13:58:5.000Z</time>
      </trkpt>
      <trkpt lat="43.46028" lon="0.75531">
        <ele>303</ele>
        <time>2019-10-23T13:58:32.000Z</time>
      </trkpt>
      <trkpt lat="43.4605" lon="0.7554">
        <ele>303</ele>
        <time>2019-10-23T13:58:53.000Z</time>
      </trkpt>
      <trkpt lat="43.46073" lon="0.7554">
        <ele>302</ele>
        <time>2019-10-23T13:59:5.000Z</time>
      </trkpt>
      <trkpt lat="43.46095" lon="0.75529">
        <ele>302</ele>
        <time>2019-10-23T13:59:23.000Z</time>
      </trkpt>
      <trkpt lat="43.46115" lon="0.75511">
        <ele>301</ele>
        <time>2019-10-23T13:59:42.000Z</time>
      </trkpt>
      <trkpt lat="43.46134" lon="0.75493">
        <ele>301</ele>
        <time>2019-10-23T14:00:1.000Z</time>
      </trkpt>
      <trkpt lat="43.46155" lon="0.75476">
        <ele>301</ele>
        <time>2019-10-23T14:01:0.000Z</time>
      </trkpt>
      <trkpt lat="43.46177" lon="0.75464">
        <ele>300</ele>
        <time>2019-10-23T14:01:16.000Z</time>
      </trkpt>
      <trkpt lat="43.46199" lon="0.75454">
        <ele>302</ele>
        <time>2019-10-23T14:01:39.000Z</time>
      </trkpt>
      <trkpt lat="43.4622" lon="0.75438">
        <ele>303</ele>
        <time>2019-10-23T14:02:5.000Z</time>
      </trkpt>
      <trkpt lat="43.46241" lon="0.75425">
        <ele>304</ele>
        <time>2019-10-23T14:02:28.000Z</time>
      </trkpt>
      <trkpt lat="43.46262" lon="0.75413">
        <ele>305</ele>
        <time>2019-10-23T14:02:49.000Z</time>
      </trkpt>
      <trkpt lat="43.46285" lon="0.75407">
        <ele>304</ele>
        <time>2019-10-23T14:03:8.000Z</time>
      </trkpt>
      <trkpt lat="43.46308" lon="0.75399">
        <ele>302</ele>
        <time>2019-10-23T14:03:29.000Z</time>
      </trkpt>
      <trkpt lat="43.46331" lon="0.75394">
        <ele>301</ele>
        <time>2019-10-23T14:03:48.000Z</time>
      </trkpt>
      <trkpt lat="43.46354" lon="0.75398">
        <ele>299</ele>
        <time>2019-10-23T14:04:5.000Z</time>
      </trkpt>
      <trkpt lat="43.46376" lon="0.75398">
        <ele>295</ele>
        <time>2019-10-23T14:04:24.000Z</time>
      </trkpt>
      <trkpt lat="43.46398" lon="0.7539">
        <ele>292</ele>
        <time>2019-10-23T14:04:41.000Z</time>
      </trkpt>
      <trkpt lat="43.46422" lon="0.75388">
        <ele>291</ele>
        <time>2019-10-23T14:05:4.000Z</time>
      </trkpt>
      <trkpt lat="43.46444" lon="0.75381">
        <ele>290</ele>
        <time>2019-10-23T14:05:23.000Z</time>
      </trkpt>
      <trkpt lat="43.46467" lon="0.75378">
        <ele>290</ele>
        <time>2019-10-23T14:05:41.000Z</time>
      </trkpt>
      <trkpt lat="43.46489" lon="0.75374">
        <ele>289</ele>
        <time>2019-10-23T14:06:0.000Z</time>
      </trkpt>
      <trkpt lat="43.46512" lon="0.75373">
        <ele>289</ele>
        <time>2019-10-23T14:06:19.000Z</time>
      </trkpt>
      <trkpt lat="43.46536" lon="0.75376">
        <ele>289</ele>
        <time>2019-10-23T14:06:40.000Z</time>
      </trkpt>
      <trkpt lat="43.46558" lon="0.75382">
        <ele>289</ele>
        <time>2019-10-23T14:07:0.000Z</time>
      </trkpt>
      <trkpt lat="43.4658" lon="0.75388">
        <ele>288</ele>
        <time>2019-10-23T14:10:7.000Z</time>
      </trkpt>
      <trkpt lat="43.46603" lon="0.75395">
        <ele>288</ele>
        <time>2019-10-23T14:11:53.000Z</time>
      </trkpt>
      <trkpt lat="43.46625" lon="0.75405">
        <ele>288</ele>
        <time>2019-10-23T14:12:11.000Z</time>
      </trkpt>
      <trkpt lat="43.46648" lon="0.75412">
        <ele>290</ele>
        <time>2019-10-23T14:12:32.000Z</time>
      </trkpt>
      <trkpt lat="43.4667" lon="0.75419">
        <ele>291</ele>
        <time>2019-10-23T14:12:49.000Z</time>
      </trkpt>
      <trkpt lat="43.46694" lon="0.75425">
        <ele>290</ele>
        <time>2019-10-23T14:13:9.000Z</time>
      </trkpt>
      <trkpt lat="43.46716" lon="0.75434">
        <ele>291</ele>
        <time>2019-10-23T14:13:25.000Z</time>
      </trkpt>
      <trkpt lat="43.46739" lon="0.75441">
        <ele>290</ele>
        <time>2019-10-23T14:13:41.000Z</time>
      </trkpt>
      <trkpt lat="43.46761" lon="0.75449">
        <ele>290</ele>
        <time>2019-10-23T14:14:3.000Z</time>
      </trkpt>
      <trkpt lat="43.46784" lon="0.75457">
        <ele>290</ele>
        <time>2019-10-23T14:14:22.000Z</time>
      </trkpt>
      <trkpt lat="43.46806" lon="0.75466">
        <ele>290</ele>
        <time>2019-10-23T14:14:39.000Z</time>
      </trkpt>
      <trkpt lat="43.46829" lon="0.75478">
        <ele>289</ele>
        <time>2019-10-23T14:14:58.000Z</time>
      </trkpt>
      <trkpt lat="43.4685" lon="0.7549">
        <ele>288</ele>
        <time>2019-10-23T14:15:13.000Z</time>
      </trkpt>
      <trkpt lat="43.46872" lon="0.75501">
        <ele>287</ele>
        <time>2019-10-23T14:15:32.000Z</time>
      </trkpt>
      <trkpt lat="43.46893" lon="0.75515">
        <ele>286</ele>
        <time>2019-10-23T14:15:49.000Z</time>
      </trkpt>
      <trkpt lat="43.46917" lon="0.75524">
        <ele>286</ele>
        <time>2019-10-23T14:16:6.000Z</time>
      </trkpt>
      <trkpt lat="43.46939" lon="0.75533">
        <ele>287</ele>
        <time>2019-10-23T14:16:27.000Z</time>
      </trkpt>
      <trkpt lat="43.46962" lon="0.75537">
        <ele>289</ele>
        <time>2019-10-23T14:16:48.000Z</time>
      </trkpt>
      <trkpt lat="43.46984" lon="0.75528">
        <ele>290</ele>
        <time>2019-10-23T14:17:12.000Z</time>
      </trkpt>
      <trkpt lat="43.46998" lon="0.75503">
        <ele>290</ele>
        <time>2019-10-23T14:17:29.000Z</time>
      </trkpt>
      <trkpt lat="43.47012" lon="0.75479">
        <ele>288</ele>
        <time>2019-10-23T14:17:48.000Z</time>
      </trkpt>
      <trkpt lat="43.47025" lon="0.75453">
        <ele>287</ele>
        <time>2019-10-23T14:18:9.000Z</time>
      </trkpt>
      <trkpt lat="43.47037" lon="0.75427">
        <ele>284</ele>
        <time>2019-10-23T14:18:29.000Z</time>
      </trkpt>
      <trkpt lat="43.47048" lon="0.75399">
        <ele>281</ele>
        <time>2019-10-23T14:18:49.000Z</time>
      </trkpt>
      <trkpt lat="43.47052" lon="0.75367">
        <ele>279</ele>
        <time>2019-10-23T14:19:10.000Z</time>
      </trkpt>
      <trkpt lat="43.47052" lon="0.75336">
        <ele>277</ele>
        <time>2019-10-23T14:19:31.000Z</time>
      </trkpt>
      <trkpt lat="43.47052" lon="0.75304">
        <ele>274</ele>
        <time>2019-10-23T14:19:51.000Z</time>
      </trkpt>
      <trkpt lat="43.47049" lon="0.75272">
        <ele>271</ele>
        <time>2019-10-23T14:20:11.000Z</time>
      </trkpt>
      <trkpt lat="43.4705" lon="0.75241">
        <ele>269</ele>
        <time>2019-10-23T14:20:35.000Z</time>
      </trkpt>
      <trkpt lat="43.47051" lon="0.75208">
        <ele>268</ele>
        <time>2019-10-23T14:20:57.000Z</time>
      </trkpt>
      <trkpt lat="43.47052" lon="0.75176">
        <ele>266</ele>
        <time>2019-10-23T14:21:15.000Z</time>
      </trkpt>
      <trkpt lat="43.47046" lon="0.75145">
        <ele>265</ele>
        <time>2019-10-23T14:21:33.000Z</time>
      </trkpt>
      <trkpt lat="43.47037" lon="0.75116">
        <ele>263</ele>
        <time>2019-10-23T14:21:53.000Z</time>
      </trkpt>
      <trkpt lat="43.47025" lon="0.75088">
        <ele>261</ele>
        <time>2019-10-23T14:22:12.000Z</time>
      </trkpt>
      <trkpt lat="43.47018" lon="0.75058">
        <ele>259</ele>
        <time>2019-10-23T14:22:35.000Z</time>
      </trkpt>
      <trkpt lat="43.47016" lon="0.75026">
        <ele>257</ele>
        <time>2019-10-23T14:23:2.000Z</time>
      </trkpt>
      <trkpt lat="43.47016" lon="0.74995">
        <ele>252</ele>
        <time>2019-10-23T14:23:27.000Z</time>
      </trkpt>
      <trkpt lat="43.47035" lon="0.74978">
        <ele>250</ele>
        <time>2019-10-23T14:23:49.000Z</time>
      </trkpt>
      <trkpt lat="43.47058" lon="0.74974">
        <ele>247</ele>
        <time>2019-10-23T14:24:15.000Z</time>
      </trkpt>
      <trkpt lat="43.47079" lon="0.74964">
        <ele>244</ele>
        <time>2019-10-23T14:24:38.000Z</time>
      </trkpt>
      <trkpt lat="43.47103" lon="0.74963">
        <ele>241</ele>
        <time>2019-10-23T14:24:54.000Z</time>
      </trkpt>
      <trkpt lat="43.47126" lon="0.74959">
        <ele>241</ele>
        <time>2019-10-23T14:25:16.000Z</time>
      </trkpt>
      <trkpt lat="43.47149" lon="0.74956">
        <ele>243</ele>
        <time>2019-10-23T14:25:34.000Z</time>
      </trkpt>
      <trkpt lat="43.47172" lon="0.74957">
        <ele>244</ele>
        <time>2019-10-23T14:25:53.000Z</time>
      </trkpt>
      <trkpt lat="43.47194" lon="0.74958">
        <ele>244</ele>
        <time>2019-10-23T14:26:9.000Z</time>
      </trkpt>
      <trkpt lat="43.47217" lon="0.74965">
        <ele>243</ele>
        <time>2019-10-23T14:26:27.000Z</time>
      </trkpt>
      <trkpt lat="43.47237" lon="0.74977">
        <ele>243</ele>
        <time>2019-10-23T14:26:45.000Z</time>
      </trkpt>
      <trkpt lat="43.47257" lon="0.74995">
        <ele>242</ele>
        <time>2019-10-23T14:27:8.000Z</time>
      </trkpt>
      <trkpt lat="43.47279" lon="0.7501">
        <ele>240</ele>
        <time>2019-10-23T14:27:30.000Z</time>
      </trkpt>
      <trkpt lat="43.47293" lon="0.74986">
        <ele>241</ele>
        <time>2019-10-23T14:27:48.000Z</time>
      </trkpt>
      <trkpt lat="43.47302" lon="0.74956">
        <ele>240</ele>
        <time>2019-10-23T14:28:9.000Z</time>
      </trkpt>
      <trkpt lat="43.4731" lon="0.74926">
        <ele>239</ele>
        <time>2019-10-23T14:28:28.000Z</time>
      </trkpt>
      <trkpt lat="43.47317" lon="0.74896">
        <ele>239</ele>
        <time>2019-10-23T14:28:45.000Z</time>
      </trkpt>
      <trkpt lat="43.47326" lon="0.74866">
        <ele>239</ele>
        <time>2019-10-23T14:29:2.000Z</time>
      </trkpt>
      <trkpt lat="43.47337" lon="0.74837">
        <ele>239</ele>
        <time>2019-10-23T14:29:20.000Z</time>
      </trkpt>
      <trkpt lat="43.47348" lon="0.7481">
        <ele>240</ele>
        <time>2019-10-23T14:29:38.000Z</time>
      </trkpt>
      <trkpt lat="43.47367" lon="0.74788">
        <ele>241</ele>
        <time>2019-10-23T14:29:52.000Z</time>
      </trkpt>
      <trkpt lat="43.4736" lon="0.74757">
        <ele>239</ele>
        <time>2019-10-23T14:30:11.000Z</time>
      </trkpt>
      <trkpt lat="43.47339" lon="0.74746">
        <ele>240</ele>
        <time>2019-10-23T14:30:29.000Z</time>
      </trkpt>
      <trkpt lat="43.47316" lon="0.74736">
        <ele>239</ele>
        <time>2019-10-23T14:30:46.000Z</time>
      </trkpt>
      <trkpt lat="43.47311" lon="0.74704">
        <ele>240</ele>
        <time>2019-10-23T14:31:10.000Z</time>
      </trkpt>
      <trkpt lat="43.47316" lon="0.74672">
        <ele>241</ele>
        <time>2019-10-23T14:31:23.000Z</time>
      </trkpt>
      <trkpt lat="43.47324" lon="0.74641">
        <ele>240</ele>
        <time>2019-10-23T14:31:48.000Z</time>
      </trkpt>
      <trkpt lat="43.47332" lon="0.74612">
        <ele>241</ele>
        <time>2019-10-23T14:32:5.000Z</time>
      </trkpt>
      <trkpt lat="43.47342" lon="0.74584">
        <ele>240</ele>
        <time>2019-10-23T14:32:22.000Z</time>
      </trkpt>
      <trkpt lat="43.47351" lon="0.74554">
        <ele>240</ele>
        <time>2019-10-23T14:32:40.000Z</time>
      </trkpt>
      <trkpt lat="43.47358" lon="0.74524">
        <ele>240</ele>
        <time>2019-10-23T14:32:57.000Z</time>
      </trkpt>
      <trkpt lat="43.4737" lon="0.74496">
        <ele>240</ele>
        <time>2019-10-23T14:33:14.000Z</time>
      </trkpt>
      <trkpt lat="43.47376" lon="0.74466">
        <ele>240</ele>
        <time>2019-10-23T14:33:32.000Z</time>
      </trkpt>
      <trkpt lat="43.47388" lon="0.7444">
        <ele>240</ele>
        <time>2019-10-23T14:33:49.000Z</time>
      </trkpt>
      <trkpt lat="43.47395" lon="0.74409">
        <ele>241</ele>
        <time>2019-10-23T14:34:9.000Z</time>
      </trkpt>
      <trkpt lat="43.47402" lon="0.74379">
        <ele>242</ele>
        <time>2019-10-23T14:34:28.000Z</time>
      </trkpt>
      <trkpt lat="43.47408" lon="0.74349">
        <ele>243</ele>
        <time>2019-10-23T14:34:48.000Z</time>
      </trkpt>
      <trkpt lat="43.47423" lon="0.74326">
        <ele>244</ele>
        <time>2019-10-23T14:35:13.000Z</time>
      </trkpt>
      <trkpt lat="43.47444" lon="0.74341">
        <ele>245</ele>
        <time>2019-10-23T14:35:32.000Z</time>
      </trkpt>
      <trkpt lat="43.47466" lon="0.7435">
        <ele>245</ele>
        <time>2019-10-23T14:35:53.000Z</time>
      </trkpt>
      <trkpt lat="43.47488" lon="0.7436">
        <ele>245</ele>
        <time>2019-10-23T14:36:11.000Z</time>
      </trkpt>
      <trkpt lat="43.47509" lon="0.74373">
        <ele>245</ele>
        <time>2019-10-23T14:36:30.000Z</time>
      </trkpt>
      <trkpt lat="43.47529" lon="0.74388">
        <ele>246</ele>
        <time>2019-10-23T14:36:48.000Z</time>
      </trkpt>
      <trkpt lat="43.47552" lon="0.74397">
        <ele>246</ele>
        <time>2019-10-23T14:37:7.000Z</time>
      </trkpt>
      <trkpt lat="43.47574" lon="0.74407">
        <ele>246</ele>
        <time>2019-10-23T14:37:27.000Z</time>
      </trkpt>
      <trkpt lat="43.47595" lon="0.74419">
        <ele>246</ele>
        <time>2019-10-23T14:37:46.000Z</time>
      </trkpt>
      <trkpt lat="43.47617" lon="0.74426">
        <ele>247</ele>
        <time>2019-10-23T14:38:9.000Z</time>
      </trkpt>
      <trkpt lat="43.4764" lon="0.74434">
        <ele>247</ele>
        <time>2019-10-23T14:38:25.000Z</time>
      </trkpt>
      <trkpt lat="43.47655" lon="0.7441">
        <ele>249</ele>
        <time>2019-10-23T14:40:29.000Z</time>
      </trkpt>
      <trkpt lat="43.47658" lon="0.74378">
        <ele>249</ele>
        <time>2019-10-23T14:40:49.000Z</time>
      </trkpt>
      <trkpt lat="43.47661" lon="0.74346">
        <ele>250</ele>
        <time>2019-10-23T14:41:7.000Z</time>
      </trkpt>
      <trkpt lat="43.47662" lon="0.74314">
        <ele>250</ele>
        <time>2019-10-23T14:41:26.000Z</time>
      </trkpt>
      <trkpt lat="43.47664" lon="0.74283">
        <ele>250</ele>
        <time>2019-10-23T14:41:44.000Z</time>
      </trkpt>
      <trkpt lat="43.47667" lon="0.74252">
        <ele>251</ele>
        <time>2019-10-23T14:42:2.000Z</time>
      </trkpt>
      <trkpt lat="43.47669" lon="0.74221">
        <ele>253</ele>
        <time>2019-10-23T14:42:24.000Z</time>
      </trkpt>
      <trkpt lat="43.47669" lon="0.7419">
        <ele>253</ele>
        <time>2019-10-23T14:42:45.000Z</time>
      </trkpt>
      <trkpt lat="43.47674" lon="0.74159">
        <ele>256</ele>
        <time>2019-10-23T14:43:4.000Z</time>
      </trkpt>
      <trkpt lat="43.4768" lon="0.74129">
        <ele>258</ele>
        <time>2019-10-23T14:43:25.000Z</time>
      </trkpt>
      <trkpt lat="43.47679" lon="0.74097">
        <ele>260</ele>
        <time>2019-10-23T14:43:46.000Z</time>
      </trkpt>
      <trkpt lat="43.47677" lon="0.74066">
        <ele>262</ele>
        <time>2019-10-23T14:44:11.000Z</time>
      </trkpt>
      <trkpt lat="43.47676" lon="0.74035">
        <ele>265</ele>
        <time>2019-10-23T14:44:33.000Z</time>
      </trkpt>
      <trkpt lat="43.47677" lon="0.74003">
        <ele>268</ele>
        <time>2019-10-23T14:44:58.000Z</time>
      </trkpt>
      <trkpt lat="43.47677" lon="0.73972">
        <ele>271</ele>
        <time>2019-10-23T14:45:19.000Z</time>
      </trkpt>
      <trkpt lat="43.47677" lon="0.73941">
        <ele>273</ele>
        <time>2019-10-23T14:45:40.000Z</time>
      </trkpt>
      <trkpt lat="43.47686" lon="0.73912">
        <ele>275</ele>
        <time>2019-10-23T14:46:1.000Z</time>
      </trkpt>
      <trkpt lat="43.47689" lon="0.73881">
        <ele>277</ele>
        <time>2019-10-23T14:46:22.000Z</time>
      </trkpt>
      <trkpt lat="43.47689" lon="0.7385">
        <ele>278</ele>
        <time>2019-10-23T14:46:41.000Z</time>
      </trkpt>
      <trkpt lat="43.4769" lon="0.73818">
        <ele>278</ele>
        <time>2019-10-23T14:47:1.000Z</time>
      </trkpt>
      <trkpt lat="43.47692" lon="0.73787">
        <ele>279</ele>
        <time>2019-10-23T14:47:19.000Z</time>
      </trkpt>
      <trkpt lat="43.47687" lon="0.73755">
        <ele>280</ele>
        <time>2019-10-23T14:47:41.000Z</time>
      </trkpt>
      <trkpt lat="43.47686" lon="0.73723">
        <ele>282</ele>
        <time>2019-10-23T14:47:59.000Z</time>
      </trkpt>
      <trkpt lat="43.47688" lon="0.7369">
        <ele>283</ele>
        <time>2019-10-23T14:48:18.000Z</time>
      </trkpt>
      <trkpt lat="43.47691" lon="0.73659">
        <ele>284</ele>
        <time>2019-10-23T14:48:36.000Z</time>
      </trkpt>
      <trkpt lat="43.47701" lon="0.73631">
        <ele>285</ele>
        <time>2019-10-23T14:48:52.000Z</time>
      </trkpt>
      <trkpt lat="43.47706" lon="0.73601">
        <ele>286</ele>
        <time>2019-10-23T14:49:8.000Z</time>
      </trkpt>
      <trkpt lat="43.4771" lon="0.73569">
        <ele>287</ele>
        <time>2019-10-23T14:49:26.000Z</time>
      </trkpt>
      <trkpt lat="43.47703" lon="0.7354">
        <ele>288</ele>
        <time>2019-10-23T14:49:46.000Z</time>
      </trkpt>
      <trkpt lat="43.47693" lon="0.7351">
        <ele>287</ele>
        <time>2019-10-23T14:50:7.000Z</time>
      </trkpt>
      <trkpt lat="43.4769" lon="0.73479">
        <ele>289</ele>
        <time>2019-10-23T14:50:25.000Z</time>
      </trkpt>
      <trkpt lat="43.47686" lon="0.73447">
        <ele>290</ele>
        <time>2019-10-23T14:50:42.000Z</time>
      </trkpt>
      <trkpt lat="43.47681" lon="0.73417">
        <ele>291</ele>
        <time>2019-10-23T14:50:59.000Z</time>
      </trkpt>
      <trkpt lat="43.47678" lon="0.73385">
        <ele>291</ele>
        <time>2019-10-23T14:51:16.000Z</time>
      </trkpt>
      <trkpt lat="43.47674" lon="0.73353">
        <ele>292</ele>
        <time>2019-10-23T14:51:33.000Z</time>
      </trkpt>
      <trkpt lat="43.47673" lon="0.73321">
        <ele>293</ele>
        <time>2019-10-23T14:51:51.000Z</time>
      </trkpt>
      <trkpt lat="43.47669" lon="0.7329">
        <ele>294</ele>
        <time>2019-10-23T14:52:7.000Z</time>
      </trkpt>
      <trkpt lat="43.47665" lon="0.73258">
        <ele>295</ele>
        <time>2019-10-23T14:52:26.000Z</time>
      </trkpt>
      <trkpt lat="43.47662" lon="0.73227">
        <ele>296</ele>
        <time>2019-10-23T14:52:42.000Z</time>
      </trkpt>
      <trkpt lat="43.47658" lon="0.73196">
        <ele>298</ele>
        <time>2019-10-23T14:53:1.000Z</time>
      </trkpt>
      <trkpt lat="43.47653" lon="0.73164">
        <ele>300</ele>
        <time>2019-10-23T14:53:19.000Z</time>
      </trkpt>
      <trkpt lat="43.4765" lon="0.73133">
        <ele>301</ele>
        <time>2019-10-23T14:53:35.000Z</time>
      </trkpt>
      <trkpt lat="43.47644" lon="0.73101">
        <ele>302</ele>
        <time>2019-10-23T14:53:52.000Z</time>
      </trkpt>
      <trkpt lat="43.47639" lon="0.7307">
        <ele>304</ele>
        <time>2019-10-23T14:54:9.000Z</time>
      </trkpt>
      <trkpt lat="43.47633" lon="0.73039">
        <ele>305</ele>
        <time>2019-10-23T14:54:26.000Z</time>
      </trkpt>
      <trkpt lat="43.47629" lon="0.73008">
        <ele>306</ele>
        <time>2019-10-23T14:54:43.000Z</time>
      </trkpt>
      <trkpt lat="43.47627" lon="0.72976">
        <ele>305</ele>
        <time>2019-10-23T14:55:1.000Z</time>
      </trkpt>
      <trkpt lat="43.47629" lon="0.72944">
        <ele>305</ele>
        <time>2019-10-23T14:55:15.000Z</time>
      </trkpt>
      <trkpt lat="43.47628" lon="0.72912">
        <ele>306</ele>
        <time>2019-10-23T14:55:31.000Z</time>
      </trkpt>
      <trkpt lat="43.47626" lon="0.7288">
        <ele>306</ele>
        <time>2019-10-23T14:55:48.000Z</time>
      </trkpt>
      <trkpt lat="43.47625" lon="0.72849">
        <ele>307</ele>
        <time>2019-10-23T14:56:5.000Z</time>
      </trkpt>
      <trkpt lat="43.47631" lon="0.72818">
        <ele>308</ele>
        <time>2019-10-23T14:56:21.000Z</time>
      </trkpt>
      <trkpt lat="43.47637" lon="0.72788">
        <ele>309</ele>
        <time>2019-10-23T14:56:43.000Z</time>
      </trkpt>
      <trkpt lat="43.47641" lon="0.72757">
        <ele>309</ele>
        <time>2019-10-23T14:57:1.000Z</time>
      </trkpt>
      <trkpt lat="43.47649" lon="0.72727">
        <ele>310</ele>
        <time>2019-10-23T14:57:21.000Z</time>
      </trkpt>
      <trkpt lat="43.4766" lon="0.727">
        <ele>310</ele>
        <time>2019-10-23T14:57:38.000Z</time>
      </trkpt>
      <trkpt lat="43.47671" lon="0.72672">
        <ele>312</ele>
        <time>2019-10-23T14:57:56.000Z</time>
      </trkpt>
      <trkpt lat="43.47682" lon="0.72643">
        <ele>312</ele>
        <time>2019-10-23T14:58:10.000Z</time>
      </trkpt>
      <trkpt lat="43.47691" lon="0.72614">
        <ele>312</ele>
        <time>2019-10-23T14:58:27.000Z</time>
      </trkpt>
      <trkpt lat="43.477" lon="0.72586">
        <ele>312</ele>
        <time>2019-10-23T14:58:44.000Z</time>
      </trkpt>
      <trkpt lat="43.47709" lon="0.72556">
        <ele>313</ele>
        <time>2019-10-23T14:59:3.000Z</time>
      </trkpt>
      <trkpt lat="43.47719" lon="0.72526">
        <ele>313</ele>
        <time>2019-10-23T14:59:23.000Z</time>
      </trkpt>
      <trkpt lat="43.4773" lon="0.72499">
        <ele>315</ele>
        <time>2019-10-23T14:59:40.000Z</time>
      </trkpt>
      <trkpt lat="43.47743" lon="0.72471">
        <ele>317</ele>
        <time>2019-10-23T14:59:59.000Z</time>
      </trkpt>
      <trkpt lat="43.47754" lon="0.72443">
        <ele>319</ele>
        <time>2019-10-23T15:00:17.000Z</time>
      </trkpt>
      <trkpt lat="43.47765" lon="0.72415">
        <ele>320</ele>
        <time>2019-10-23T15:00:40.000Z</time>
      </trkpt>
      <trkpt lat="43.47743" lon="0.72405">
        <ele>320</ele>
        <time>2019-10-23T15:02:47.000Z</time>
      </trkpt>
      <trkpt lat="43.47721" lon="0.72396">
        <ele>317</ele>
        <time>2019-10-23T15:03:5.000Z</time>
      </trkpt>
      <trkpt lat="43.47699" lon="0.72391">
        <ele>315</ele>
        <time>2019-10-23T15:03:23.000Z</time>
      </trkpt>
      <trkpt lat="43.47677" lon="0.72382">
        <ele>313</ele>
        <time>2019-10-23T15:03:40.000Z</time>
      </trkpt>
      <trkpt lat="43.47655" lon="0.72372">
        <ele>311</ele>
        <time>2019-10-23T15:03:57.000Z</time>
      </trkpt>
      <trkpt lat="43.47633" lon="0.72365">
        <ele>310</ele>
        <time>2019-10-23T15:04:14.000Z</time>
      </trkpt>
      <trkpt lat="43.4761" lon="0.72357">
        <ele>307</ele>
        <time>2019-10-23T15:04:32.000Z</time>
      </trkpt>
      <trkpt lat="43.47588" lon="0.7235">
        <ele>306</ele>
        <time>2019-10-23T15:04:49.000Z</time>
      </trkpt>
      <trkpt lat="43.47565" lon="0.72346">
        <ele>304</ele>
        <time>2019-10-23T15:05:6.000Z</time>
      </trkpt>
      <trkpt lat="43.47542" lon="0.72339">
        <ele>304</ele>
        <time>2019-10-23T15:05:24.000Z</time>
      </trkpt>
      <trkpt lat="43.47519" lon="0.72334">
        <ele>303</ele>
        <time>2019-10-23T15:05:41.000Z</time>
      </trkpt>
      <trkpt lat="43.47497" lon="0.72326">
        <ele>304</ele>
        <time>2019-10-23T15:05:58.000Z</time>
      </trkpt>
      <trkpt lat="43.47474" lon="0.72325">
        <ele>305</ele>
        <time>2019-10-23T15:06:15.000Z</time>
      </trkpt>
      <trkpt lat="43.47451" lon="0.72331">
        <ele>307</ele>
        <time>2019-10-23T15:06:36.000Z</time>
      </trkpt>
      <trkpt lat="43.47442" lon="0.7236">
        <ele>307</ele>
        <time>2019-10-23T15:06:57.000Z</time>
      </trkpt>
      <trkpt lat="43.47435" lon="0.72389">
        <ele>307</ele>
        <time>2019-10-23T15:07:15.000Z</time>
      </trkpt>
      <trkpt lat="43.47427" lon="0.72419">
        <ele>306</ele>
        <time>2019-10-23T15:07:33.000Z</time>
      </trkpt>
      <trkpt lat="43.47417" lon="0.72448">
        <ele>305</ele>
        <time>2019-10-23T15:07:51.000Z</time>
      </trkpt>
      <trkpt lat="43.47409" lon="0.72479">
        <ele>304</ele>
        <time>2019-10-23T15:08:10.000Z</time>
      </trkpt>
      <trkpt lat="43.47398" lon="0.72507">
        <ele>304</ele>
        <time>2019-10-23T15:08:28.000Z</time>
      </trkpt>
      <trkpt lat="43.47376" lon="0.72511">
        <ele>301</ele>
        <time>2019-10-23T15:08:56.000Z</time>
      </trkpt>
      <trkpt lat="43.47354" lon="0.72499">
        <ele>301</ele>
        <time>2019-10-23T15:09:16.000Z</time>
      </trkpt>
      <trkpt lat="43.47333" lon="0.72488">
        <ele>300</ele>
        <time>2019-10-23T15:09:35.000Z</time>
      </trkpt>
      <trkpt lat="43.47312" lon="0.72474">
        <ele>297</ele>
        <time>2019-10-23T15:09:54.000Z</time>
      </trkpt>
      <trkpt lat="43.4729" lon="0.72461">
        <ele>295</ele>
        <time>2019-10-23T15:10:10.000Z</time>
      </trkpt>
      <trkpt lat="43.47269" lon="0.72449">
        <ele>293</ele>
        <time>2019-10-23T15:10:26.000Z</time>
      </trkpt>
      <trkpt lat="43.47249" lon="0.72435">
        <ele>290</ele>
        <time>2019-10-23T15:10:45.000Z</time>
      </trkpt>
      <trkpt lat="43.47228" lon="0.72423">
        <ele>287</ele>
        <time>2019-10-23T15:11:4.000Z</time>
      </trkpt>
      <trkpt lat="43.47206" lon="0.72435">
        <ele>285</ele>
        <time>2019-10-23T15:11:23.000Z</time>
      </trkpt>
      <trkpt lat="43.47189" lon="0.72457">
        <ele>283</ele>
        <time>2019-10-23T15:11:42.000Z</time>
      </trkpt>
      <trkpt lat="43.47177" lon="0.72483">
        <ele>283</ele>
        <time>2019-10-23T15:11:59.000Z</time>
      </trkpt>
      <trkpt lat="43.47165" lon="0.7251">
        <ele>282</ele>
        <time>2019-10-23T15:12:19.000Z</time>
      </trkpt>
      <trkpt lat="43.47152" lon="0.72535">
        <ele>283</ele>
        <time>2019-10-23T15:12:37.000Z</time>
      </trkpt>
      <trkpt lat="43.47138" lon="0.72561">
        <ele>284</ele>
        <time>2019-10-23T15:12:56.000Z</time>
      </trkpt>
      <trkpt lat="43.47128" lon="0.72591">
        <ele>285</ele>
        <time>2019-10-23T15:13:17.000Z</time>
      </trkpt>
      <trkpt lat="43.47114" lon="0.72616">
        <ele>285</ele>
        <time>2019-10-23T15:13:42.000Z</time>
      </trkpt>
      <trkpt lat="43.47101" lon="0.72641">
        <ele>287</ele>
        <time>2019-10-23T15:14:11.000Z</time>
      </trkpt>
      <trkpt lat="43.47089" lon="0.72667">
        <ele>288</ele>
        <time>2019-10-23T15:14:24.000Z</time>
      </trkpt>
      <trkpt lat="43.47075" lon="0.72692">
        <ele>289</ele>
        <time>2019-10-23T15:14:55.000Z</time>
      </trkpt>
      <trkpt lat="43.47061" lon="0.72718">
        <ele>291</ele>
        <time>2019-10-23T15:15:6.000Z</time>
      </trkpt>
      <trkpt lat="43.47042" lon="0.72742">
        <ele>293</ele>
        <time>2019-10-23T15:15:34.000Z</time>
      </trkpt>
      <trkpt lat="43.47021" lon="0.72754">
        <ele>295</ele>
        <time>2019-10-23T15:15:48.000Z</time>
      </trkpt>
      <trkpt lat="43.46999" lon="0.72761">
        <ele>296</ele>
        <time>2019-10-23T15:16:9.000Z</time>
      </trkpt>
      <trkpt lat="43.46978" lon="0.72771">
        <ele>298</ele>
        <time>2019-10-23T15:16:32.000Z</time>
      </trkpt>
      <trkpt lat="43.46987" lon="0.7274">
        <ele>297</ele>
        <time>2019-10-23T15:19:13.000Z</time>
      </trkpt>
      <trkpt lat="43.46974" lon="0.72713">
        <ele>299</ele>
        <time>2019-10-23T15:19:39.000Z</time>
      </trkpt>
      <trkpt lat="43.46952" lon="0.72702">
        <ele>298</ele>
        <time>2019-10-23T15:20:0.000Z</time>
      </trkpt>
      <trkpt lat="43.4693" lon="0.72693">
        <ele>297</ele>
        <time>2019-10-23T15:20:19.000Z</time>
      </trkpt>
      <trkpt lat="43.46909" lon="0.72682">
        <ele>295</ele>
        <time>2019-10-23T15:20:38.000Z</time>
      </trkpt>
      <trkpt lat="43.46888" lon="0.72669">
        <ele>294</ele>
        <time>2019-10-23T15:20:59.000Z</time>
      </trkpt>
      <trkpt lat="43.46866" lon="0.72659">
        <ele>295</ele>
        <time>2019-10-23T15:21:17.000Z</time>
      </trkpt>
      <trkpt lat="43.46844" lon="0.72649">
        <ele>296</ele>
        <time>2019-10-23T15:21:35.000Z</time>
      </trkpt>
      <trkpt lat="43.46823" lon="0.72661">
        <ele>296</ele>
        <time>2019-10-23T15:22:18.000Z</time>
      </trkpt>
      <trkpt lat="43.46812" lon="0.72689">
        <ele>295</ele>
        <time>2019-10-23T15:22:39.000Z</time>
      </trkpt>
      <trkpt lat="43.46801" lon="0.72717">
        <ele>294</ele>
        <time>2019-10-23T15:22:56.000Z</time>
      </trkpt>
      <trkpt lat="43.4679" lon="0.72746">
        <ele>292</ele>
        <time>2019-10-23T15:23:14.000Z</time>
      </trkpt>
      <trkpt lat="43.46779" lon="0.72774">
        <ele>291</ele>
        <time>2019-10-23T15:23:32.000Z</time>
      </trkpt>
      <trkpt lat="43.46768" lon="0.72803">
        <ele>290</ele>
        <time>2019-10-23T15:23:49.000Z</time>
      </trkpt>
      <trkpt lat="43.46757" lon="0.7283">
        <ele>288</ele>
        <time>2019-10-23T15:24:6.000Z</time>
      </trkpt>
      <trkpt lat="43.46746" lon="0.72858">
        <ele>287</ele>
        <time>2019-10-23T15:24:22.000Z</time>
      </trkpt>
      <trkpt lat="43.46735" lon="0.72886">
        <ele>286</ele>
        <time>2019-10-23T15:24:40.000Z</time>
      </trkpt>
      <trkpt lat="43.46724" lon="0.72915">
        <ele>285</ele>
        <time>2019-10-23T15:24:56.000Z</time>
      </trkpt>
      <trkpt lat="43.46712" lon="0.72941">
        <ele>284</ele>
        <time>2019-10-23T15:25:12.000Z</time>
      </trkpt>
      <trkpt lat="43.46702" lon="0.72971">
        <ele>283</ele>
        <time>2019-10-23T15:25:30.000Z</time>
      </trkpt>
      <trkpt lat="43.46694" lon="0.73001">
        <ele>281</ele>
        <time>2019-10-23T15:25:49.000Z</time>
      </trkpt>
      <trkpt lat="43.46683" lon="0.73029">
        <ele>280</ele>
        <time>2019-10-23T15:26:5.000Z</time>
      </trkpt>
      <trkpt lat="43.46673" lon="0.73057">
        <ele>278</ele>
        <time>2019-10-23T15:26:23.000Z</time>
      </trkpt>
      <trkpt lat="43.46663" lon="0.73085">
        <ele>277</ele>
        <time>2019-10-23T15:26:41.000Z</time>
      </trkpt>
      <trkpt lat="43.46651" lon="0.73112">
        <ele>276</ele>
        <time>2019-10-23T15:26:58.000Z</time>
      </trkpt>
      <trkpt lat="43.46638" lon="0.7314">
        <ele>276</ele>
        <time>2019-10-23T15:27:15.000Z</time>
      </trkpt>
      <trkpt lat="43.46625" lon="0.73168">
        <ele>274</ele>
        <time>2019-10-23T15:27:34.000Z</time>
      </trkpt>
      <trkpt lat="43.46611" lon="0.73195">
        <ele>274</ele>
        <time>2019-10-23T15:27:53.000Z</time>
      </trkpt>
      <trkpt lat="43.46597" lon="0.73221">
        <ele>273</ele>
        <time>2019-10-23T15:28:9.000Z</time>
      </trkpt>
      <trkpt lat="43.46581" lon="0.73243">
        <ele>272</ele>
        <time>2019-10-23T15:28:27.000Z</time>
      </trkpt>
      <trkpt lat="43.46565" lon="0.73266">
        <ele>272</ele>
        <time>2019-10-23T15:28:43.000Z</time>
      </trkpt>
      <trkpt lat="43.46547" lon="0.73285">
        <ele>271</ele>
        <time>2019-10-23T15:29:1.000Z</time>
      </trkpt>
      <trkpt lat="43.46528" lon="0.73302">
        <ele>268</ele>
        <time>2019-10-23T15:30:43.000Z</time>
      </trkpt>
      <trkpt lat="43.4651" lon="0.73324">
        <ele>266</ele>
        <time>2019-10-23T15:31:4.000Z</time>
      </trkpt>
      <trkpt lat="43.4649" lon="0.73341">
        <ele>264</ele>
        <time>2019-10-23T15:31:28.000Z</time>
      </trkpt>
      <trkpt lat="43.46471" lon="0.73361">
        <ele>261</ele>
        <time>2019-10-23T15:31:49.000Z</time>
      </trkpt>
      <trkpt lat="43.46453" lon="0.73382">
        <ele>257</ele>
        <time>2019-10-23T15:32:9.000Z</time>
      </trkpt>
      <trkpt lat="43.46434" lon="0.73398">
        <ele>253</ele>
        <time>2019-10-23T15:32:28.000Z</time>
      </trkpt>
      <trkpt lat="43.46412" lon="0.7341">
        <ele>251</ele>
        <time>2019-10-23T15:32:46.000Z</time>
      </trkpt>
      <trkpt lat="43.46395" lon="0.73432">
        <ele>250</ele>
        <time>2019-10-23T15:33:1.000Z</time>
      </trkpt>
      <trkpt lat="43.46374" lon="0.73444">
        <ele>249</ele>
        <time>2019-10-23T15:33:17.000Z</time>
      </trkpt>
      <trkpt lat="43.46353" lon="0.73458">
        <ele>250</ele>
        <time>2019-10-23T15:33:34.000Z</time>
      </trkpt>
      <trkpt lat="43.46331" lon="0.73466">
        <ele>252</ele>
        <time>2019-10-23T15:33:54.000Z</time>
      </trkpt>
      <trkpt lat="43.46308" lon="0.73469">
        <ele>254</ele>
        <time>2019-10-23T15:34:12.000Z</time>
      </trkpt>
      <trkpt lat="43.46285" lon="0.73467">
        <ele>254</ele>
        <time>2019-10-23T15:34:31.000Z</time>
      </trkpt>
      <trkpt lat="43.46262" lon="0.73465">
        <ele>255</ele>
        <time>2019-10-23T15:34:47.000Z</time>
      </trkpt>
      <trkpt lat="43.46239" lon="0.73463">
        <ele>254</ele>
        <time>2019-10-23T15:35:6.000Z</time>
      </trkpt>
      <trkpt lat="43.46216" lon="0.73461">
        <ele>254</ele>
        <time>2019-10-23T15:35:23.000Z</time>
      </trkpt>
      <trkpt lat="43.46193" lon="0.73457">
        <ele>254</ele>
        <time>2019-10-23T15:35:41.000Z</time>
      </trkpt>
      <trkpt lat="43.46171" lon="0.7345">
        <ele>253</ele>
        <time>2019-10-23T15:36:10.000Z</time>
      </trkpt>
      <trkpt lat="43.46147" lon="0.73447">
        <ele>254</ele>
        <time>2019-10-23T15:36:33.000Z</time>
      </trkpt>
      <trkpt lat="43.46124" lon="0.73447">
        <ele>253</ele>
        <time>2019-10-23T15:36:52.000Z</time>
      </trkpt>
      <trkpt lat="43.46101" lon="0.73448">
        <ele>253</ele>
        <time>2019-10-23T15:37:10.000Z</time>
      </trkpt>
      <trkpt lat="43.46078" lon="0.73453">
        <ele>251</ele>
        <time>2019-10-23T15:37:27.000Z</time>
      </trkpt>
      <trkpt lat="43.46056" lon="0.7346">
        <ele>249</ele>
        <time>2019-10-23T15:37:45.000Z</time>
      </trkpt>
      <trkpt lat="43.46034" lon="0.73471">
        <ele>248</ele>
        <time>2019-10-23T15:37:59.000Z</time>
      </trkpt>
      <trkpt lat="43.46012" lon="0.73478">
        <ele>245</ele>
        <time>2019-10-23T15:38:18.000Z</time>
      </trkpt>
      <trkpt lat="43.45989" lon="0.73483">
        <ele>245</ele>
        <time>2019-10-23T15:38:37.000Z</time>
      </trkpt>
      <trkpt lat="43.45968" lon="0.73495">
        <ele>245</ele>
        <time>2019-10-23T15:38:56.000Z</time>
      </trkpt>
      <trkpt lat="43.45959" lon="0.73524">
        <ele>244</ele>
        <time>2019-10-23T15:39:12.000Z</time>
      </trkpt>
      <trkpt lat="43.45957" lon="0.73555">
        <ele>244</ele>
        <time>2019-10-23T15:39:32.000Z</time>
      </trkpt>
      <trkpt lat="43.45936" lon="0.73571">
        <ele>245</ele>
        <time>2019-10-23T15:41:19.000Z</time>
      </trkpt>
      <trkpt lat="43.45914" lon="0.73573">
        <ele>246</ele>
        <time>2019-10-23T15:41:37.000Z</time>
      </trkpt>
      <trkpt lat="43.45892" lon="0.73582">
        <ele>247</ele>
        <time>2019-10-23T15:41:56.000Z</time>
      </trkpt>
      <trkpt lat="43.45882" lon="0.73611">
        <ele>247</ele>
        <time>2019-10-23T15:42:15.000Z</time>
      </trkpt>
      <trkpt lat="43.45868" lon="0.73637">
        <ele>245</ele>
        <time>2019-10-23T15:42:34.000Z</time>
      </trkpt>
      <trkpt lat="43.45854" lon="0.73662">
        <ele>244</ele>
        <time>2019-10-23T15:42:51.000Z</time>
      </trkpt>
      <trkpt lat="43.45837" lon="0.73684">
        <ele>244</ele>
        <time>2019-10-23T15:43:9.000Z</time>
      </trkpt>
      <trkpt lat="43.45817" lon="0.73698">
        <ele>242</ele>
        <time>2019-10-23T15:43:29.000Z</time>
      </trkpt>
      <trkpt lat="43.45797" lon="0.73714">
        <ele>242</ele>
        <time>2019-10-23T15:43:50.000Z</time>
      </trkpt>
      <trkpt lat="43.45776" lon="0.73729">
        <ele>242</ele>
        <time>2019-10-23T15:44:12.000Z</time>
      </trkpt>
      <trkpt lat="43.45755" lon="0.73739">
        <ele>243</ele>
        <time>2019-10-23T15:44:29.000Z</time>
      </trkpt>
      <trkpt lat="43.45733" lon="0.73751">
        <ele>242</ele>
        <time>2019-10-23T15:44:48.000Z</time>
      </trkpt>
      <trkpt lat="43.45712" lon="0.73762">
        <ele>242</ele>
        <time>2019-10-23T15:45:6.000Z</time>
      </trkpt>
      <trkpt lat="43.45689" lon="0.73766">
        <ele>242</ele>
        <time>2019-10-23T15:45:25.000Z</time>
      </trkpt>
      <trkpt lat="43.45666" lon="0.73758">
        <ele>241</ele>
        <time>2019-10-23T15:45:43.000Z</time>
      </trkpt>
      <trkpt lat="43.45643" lon="0.7375">
        <ele>241</ele>
        <time>2019-10-23T15:46:1.000Z</time>
      </trkpt>
      <trkpt lat="43.45621" lon="0.73747">
        <ele>241</ele>
        <time>2019-10-23T15:46:19.000Z</time>
      </trkpt>
      <trkpt lat="43.45599" lon="0.73751">
        <ele>239</ele>
        <time>2019-10-23T15:46:37.000Z</time>
      </trkpt>
      <trkpt lat="43.45575" lon="0.73752">
        <ele>240</ele>
        <time>2019-10-23T15:46:57.000Z</time>
      </trkpt>
      <trkpt lat="43.45552" lon="0.7375">
        <ele>239</ele>
        <time>2019-10-23T15:47:14.000Z</time>
      </trkpt>
      <trkpt lat="43.4553" lon="0.73743">
        <ele>239</ele>
        <time>2019-10-23T15:47:34.000Z</time>
      </trkpt>
      <trkpt lat="43.45507" lon="0.7374">
        <ele>240</ele>
        <time>2019-10-23T15:47:53.000Z</time>
      </trkpt>
      <trkpt lat="43.45484" lon="0.73731">
        <ele>240</ele>
        <time>2019-10-23T15:48:12.000Z</time>
      </trkpt>
      <trkpt lat="43.45461" lon="0.73727">
        <ele>242</ele>
        <time>2019-10-23T15:48:28.000Z</time>
      </trkpt>
      <trkpt lat="43.45439" lon="0.73721">
        <ele>241</ele>
        <time>2019-10-23T15:48:46.000Z</time>
      </trkpt>
      <trkpt lat="43.45416" lon="0.73713">
        <ele>241</ele>
        <time>2019-10-23T15:49:6.000Z</time>
      </trkpt>
      <trkpt lat="43.45393" lon="0.73706">
        <ele>240</ele>
        <time>2019-10-23T15:49:24.000Z</time>
      </trkpt>
      <trkpt lat="43.45371" lon="0.73696">
        <ele>241</ele>
        <time>2019-10-23T15:49:40.000Z</time>
      </trkpt>
      <trkpt lat="43.45349" lon="0.73687">
        <ele>241</ele>
        <time>2019-10-23T15:49:57.000Z</time>
      </trkpt>
      <trkpt lat="43.45326" lon="0.73678">
        <ele>241</ele>
        <time>2019-10-23T15:50:16.000Z</time>
      </trkpt>
      <trkpt lat="43.45305" lon="0.73668">
        <ele>242</ele>
        <time>2019-10-23T15:50:32.000Z</time>
      </trkpt>
      <trkpt lat="43.45282" lon="0.73661">
        <ele>242</ele>
        <time>2019-10-23T15:50:49.000Z</time>
      </trkpt>
      <trkpt lat="43.4526" lon="0.73651">
        <ele>242</ele>
        <time>2019-10-23T15:51:7.000Z</time>
      </trkpt>
      <trkpt lat="43.45238" lon="0.73646">
        <ele>243</ele>
        <time>2019-10-23T15:51:26.000Z</time>
      </trkpt>
      <trkpt lat="43.45215" lon="0.73637">
        <ele>243</ele>
        <time>2019-10-23T15:51:42.000Z</time>
      </trkpt>
      <trkpt lat="43.45193" lon="0.73628">
        <ele>241</ele>
        <time>2019-10-23T15:52:2.000Z</time>
      </trkpt>
      <trkpt lat="43.4517" lon="0.73621">
        <ele>243</ele>
        <time>2019-10-23T15:52:20.000Z</time>
      </trkpt>
      <trkpt lat="43.45146" lon="0.73616">
        <ele>242</ele>
        <time>2019-10-23T15:52:39.000Z</time>
      </trkpt>
      <trkpt lat="43.45124" lon="0.7361">
        <ele>242</ele>
        <time>2019-10-23T15:52:54.000Z</time>
      </trkpt>
      <trkpt lat="43.45101" lon="0.73616">
        <ele>243</ele>
        <time>2019-10-23T15:53:12.000Z</time>
      </trkpt>
      <trkpt lat="43.45078" lon="0.73619">
        <ele>243</ele>
        <time>2019-10-23T15:53:32.000Z</time>
      </trkpt>
      <trkpt lat="43.45059" lon="0.73599">
        <ele>243</ele>
        <time>2019-10-23T15:53:52.000Z</time>
      </trkpt>
      <trkpt lat="43.45039" lon="0.73583">
        <ele>244</ele>
        <time>2019-10-23T15:54:12.000Z</time>
      </trkpt>
      <trkpt lat="43.45031" lon="0.73554">
        <ele>245</ele>
        <time>2019-10-23T15:54:38.000Z</time>
      </trkpt>
      <trkpt lat="43.45037" lon="0.73523">
        <ele>245</ele>
        <time>2019-10-23T15:55:44.000Z</time>
      </trkpt>
      <trkpt lat="43.45023" lon="0.73497">
        <ele>246</ele>
        <time>2019-10-23T15:56:9.000Z</time>
      </trkpt>
      <trkpt lat="43.45001" lon="0.73487">
        <ele>245</ele>
        <time>2019-10-23T15:56:33.000Z</time>
      </trkpt>
      <trkpt lat="43.44999" lon="0.73455">
        <ele>245</ele>
        <time>2019-10-23T15:56:56.000Z</time>
      </trkpt>
      <trkpt lat="43.44995" lon="0.73423">
        <ele>247</ele>
        <time>2019-10-23T15:57:28.000Z</time>
      </trkpt>
      <trkpt lat="43.44973" lon="0.73412">
        <ele>246</ele>
        <time>2019-10-23T15:57:42.000Z</time>
      </trkpt>
      <trkpt lat="43.4495" lon="0.73413">
        <ele>245</ele>
        <time>2019-10-23T15:58:5.000Z</time>
      </trkpt>
      <trkpt lat="43.44929" lon="0.73428">
        <ele>245</ele>
        <time>2019-10-23T15:58:27.000Z</time>
      </trkpt>
      <trkpt lat="43.4495" lon="0.7341">
        <ele>245</ele>
        <time>2019-10-23T16:03:57.000Z</time>
      </trkpt>
      <trkpt lat="43.44974" lon="0.73415">
        <ele>245</ele>
        <time>2019-10-23T16:04:11.000Z</time>
      </trkpt>
      <trkpt lat="43.44995" lon="0.73425">
        <ele>247</ele>
        <time>2019-10-23T16:04:28.000Z</time>
      </trkpt>
    </trkseg>
  </trk>
</gpx>